<?xml version="1.0" encoding="UTF-8" standalone="no" ?>
<gpx xmlns="http://www.topografix.com/GPX/1/1" xmlns:xsi="http://www.w3.org/2001/XMLSchema-instance" xsi:schemaLocation="http://www.topografix.com/GPX/1/1 http://www.topografix.com/GPX/1/1/gpx.xsd" version="1.1" creator="VisuGPX - https://www.visugpx.com">
  <metadata>
    <name>Mont Chauve</name>
    <desc><![CDATA[Trace AlpineQuest 24/11/2012, 09:49:08
mont chauve depuis l'aire saint michel.]]></desc>
  </metadata>
  <trk>
    <name><![CDATA[mont chauve]]></name>
    <desc><![CDATA[mont chauve depuis l'aire saint michel.]]></desc>
    <trkseg>
      <trkpt lat="43.74329" lon="7.26343">
        <ele>349.6</ele>
        <time>2012-11-24T08:49:08Z</time>
      </trkpt>
      <trkpt lat="43.74328" lon="7.26344">
        <ele>354.1</ele>
        <time>2012-11-24T08:49:23Z</time>
      </trkpt>
      <trkpt lat="43.74325" lon="7.26344">
        <ele>358.6</ele>
        <time>2012-11-24T08:49:37Z</time>
      </trkpt>
      <trkpt lat="43.74323" lon="7.26348">
        <ele>362.3</ele>
        <time>2012-11-24T08:50:01Z</time>
      </trkpt>
      <trkpt lat="43.74324" lon="7.26349">
        <ele>362.6</ele>
        <time>2012-11-24T08:50:14Z</time>
      </trkpt>
      <trkpt lat="43.74322" lon="7.26345">
        <ele>363.6</ele>
        <time>2012-11-24T08:50:21Z</time>
      </trkpt>
      <trkpt lat="43.74319" lon="7.26342">
        <ele>364.2</ele>
        <time>2012-11-24T08:50:27Z</time>
      </trkpt>
      <trkpt lat="43.74318" lon="7.26345">
        <ele>364</ele>
        <time>2012-11-24T08:50:34Z</time>
      </trkpt>
      <trkpt lat="43.7432" lon="7.26347">
        <ele>365.2</ele>
        <time>2012-11-24T08:50:40Z</time>
      </trkpt>
      <trkpt lat="43.74317" lon="7.26345">
        <ele>366</ele>
        <time>2012-11-24T08:50:53Z</time>
      </trkpt>
      <trkpt lat="43.74315" lon="7.26344">
        <ele>366.3</ele>
        <time>2012-11-24T08:51:01Z</time>
      </trkpt>
      <trkpt lat="43.74323" lon="7.26349">
        <ele>369.8</ele>
        <time>2012-11-24T08:51:51Z</time>
      </trkpt>
      <trkpt lat="43.74324" lon="7.26347">
        <ele>370.3</ele>
        <time>2012-11-24T08:52:27Z</time>
      </trkpt>
      <trkpt lat="43.74325" lon="7.2635">
        <ele>370.3</ele>
        <time>2012-11-24T08:52:36Z</time>
      </trkpt>
      <trkpt lat="43.74326" lon="7.26349">
        <ele>369</ele>
        <time>2012-11-24T08:53:08Z</time>
      </trkpt>
      <trkpt lat="43.74324" lon="7.26347">
        <ele>368.7</ele>
        <time>2012-11-24T08:53:21Z</time>
      </trkpt>
      <trkpt lat="43.74319" lon="7.26352">
        <ele>368.6</ele>
        <time>2012-11-24T08:53:29Z</time>
      </trkpt>
      <trkpt lat="43.7433" lon="7.26347">
        <ele>368.2</ele>
        <time>2012-11-24T08:53:35Z</time>
      </trkpt>
      <trkpt lat="43.74337" lon="7.26342">
        <ele>369.6</ele>
        <time>2012-11-24T08:53:40Z</time>
      </trkpt>
      <trkpt lat="43.74342" lon="7.26338">
        <ele>371.9</ele>
        <time>2012-11-24T08:53:52Z</time>
      </trkpt>
      <trkpt lat="43.74351" lon="7.26345">
        <ele>371.7</ele>
        <time>2012-11-24T08:53:58Z</time>
      </trkpt>
      <trkpt lat="43.74355" lon="7.26346">
        <ele>371.1</ele>
        <time>2012-11-24T08:54:10Z</time>
      </trkpt>
      <trkpt lat="43.74357" lon="7.26346">
        <ele>370.6</ele>
        <time>2012-11-24T08:55:07Z</time>
      </trkpt>
      <trkpt lat="43.74362" lon="7.26357">
        <ele>370.2</ele>
        <time>2012-11-24T08:55:13Z</time>
      </trkpt>
      <trkpt lat="43.74377" lon="7.26358">
        <ele>370.1</ele>
        <time>2012-11-24T08:55:19Z</time>
      </trkpt>
      <trkpt lat="43.74399" lon="7.26354">
        <ele>369.4</ele>
        <time>2012-11-24T08:55:24Z</time>
      </trkpt>
      <trkpt lat="43.74422" lon="7.26348">
        <ele>369.8</ele>
        <time>2012-11-24T08:55:29Z</time>
      </trkpt>
      <trkpt lat="43.74449" lon="7.26336">
        <ele>367.3</ele>
        <time>2012-11-24T08:55:35Z</time>
      </trkpt>
      <trkpt lat="43.74471" lon="7.26336">
        <ele>367</ele>
        <time>2012-11-24T08:55:40Z</time>
      </trkpt>
      <trkpt lat="43.74485" lon="7.26331">
        <ele>366</ele>
        <time>2012-11-24T08:55:45Z</time>
      </trkpt>
      <trkpt lat="43.74485" lon="7.26327">
        <ele>363.8</ele>
        <time>2012-11-24T08:56:32Z</time>
      </trkpt>
      <trkpt lat="43.74485" lon="7.26329">
        <ele>362.6</ele>
        <time>2012-11-24T08:57:50Z</time>
      </trkpt>
      <trkpt lat="43.74484" lon="7.26327">
        <ele>362.9</ele>
        <time>2012-11-24T08:58:07Z</time>
      </trkpt>
      <trkpt lat="43.74492" lon="7.26326">
        <ele>363.1</ele>
        <time>2012-11-24T08:58:13Z</time>
      </trkpt>
      <trkpt lat="43.74506" lon="7.26326">
        <ele>362.4</ele>
        <time>2012-11-24T08:58:19Z</time>
      </trkpt>
      <trkpt lat="43.74521" lon="7.26329">
        <ele>361.9</ele>
        <time>2012-11-24T08:58:24Z</time>
      </trkpt>
      <trkpt lat="43.74539" lon="7.26346">
        <ele>362.8</ele>
        <time>2012-11-24T08:58:29Z</time>
      </trkpt>
      <trkpt lat="43.7456" lon="7.26363">
        <ele>363.6</ele>
        <time>2012-11-24T08:58:35Z</time>
      </trkpt>
      <trkpt lat="43.74579" lon="7.26371">
        <ele>364.1</ele>
        <time>2012-11-24T08:58:40Z</time>
      </trkpt>
      <trkpt lat="43.74598" lon="7.26375">
        <ele>364.1</ele>
        <time>2012-11-24T08:58:45Z</time>
      </trkpt>
      <trkpt lat="43.74623" lon="7.26373">
        <ele>364.1</ele>
        <time>2012-11-24T08:58:51Z</time>
      </trkpt>
      <trkpt lat="43.74648" lon="7.26365">
        <ele>363.4</ele>
        <time>2012-11-24T08:58:57Z</time>
      </trkpt>
      <trkpt lat="43.74669" lon="7.26368">
        <ele>362.8</ele>
        <time>2012-11-24T08:59:02Z</time>
      </trkpt>
      <trkpt lat="43.7469" lon="7.26378">
        <ele>362.5</ele>
        <time>2012-11-24T08:59:08Z</time>
      </trkpt>
      <trkpt lat="43.74709" lon="7.26379">
        <ele>362.2</ele>
        <time>2012-11-24T08:59:13Z</time>
      </trkpt>
      <trkpt lat="43.74729" lon="7.26378">
        <ele>361.5</ele>
        <time>2012-11-24T08:59:18Z</time>
      </trkpt>
      <trkpt lat="43.74756" lon="7.26379">
        <ele>360</ele>
        <time>2012-11-24T08:59:24Z</time>
      </trkpt>
      <trkpt lat="43.74775" lon="7.26383">
        <ele>360.1</ele>
        <time>2012-11-24T08:59:29Z</time>
      </trkpt>
      <trkpt lat="43.74792" lon="7.2639">
        <ele>360.6</ele>
        <time>2012-11-24T08:59:35Z</time>
      </trkpt>
      <trkpt lat="43.74812" lon="7.26401">
        <ele>361.2</ele>
        <time>2012-11-24T08:59:41Z</time>
      </trkpt>
      <trkpt lat="43.74834" lon="7.26409">
        <ele>361.8</ele>
        <time>2012-11-24T08:59:46Z</time>
      </trkpt>
      <trkpt lat="43.74855" lon="7.26416">
        <ele>362.3</ele>
        <time>2012-11-24T08:59:51Z</time>
      </trkpt>
      <trkpt lat="43.74879" lon="7.26421">
        <ele>362.9</ele>
        <time>2012-11-24T08:59:57Z</time>
      </trkpt>
      <trkpt lat="43.74905" lon="7.26427">
        <ele>363.1</ele>
        <time>2012-11-24T09:00:03Z</time>
      </trkpt>
      <trkpt lat="43.74926" lon="7.26451">
        <ele>363.1</ele>
        <time>2012-11-24T09:00:09Z</time>
      </trkpt>
      <trkpt lat="43.74942" lon="7.26487">
        <ele>363.7</ele>
        <time>2012-11-24T09:00:15Z</time>
      </trkpt>
      <trkpt lat="43.74964" lon="7.26509">
        <ele>362.9</ele>
        <time>2012-11-24T09:00:21Z</time>
      </trkpt>
      <trkpt lat="43.74992" lon="7.26528">
        <ele>362.9</ele>
        <time>2012-11-24T09:00:27Z</time>
      </trkpt>
      <trkpt lat="43.75024" lon="7.26535">
        <ele>362.5</ele>
        <time>2012-11-24T09:00:33Z</time>
      </trkpt>
      <trkpt lat="43.75069" lon="7.26524">
        <ele>360.8</ele>
        <time>2012-11-24T09:00:39Z</time>
      </trkpt>
      <trkpt lat="43.75105" lon="7.26543">
        <ele>360.1</ele>
        <time>2012-11-24T09:00:45Z</time>
      </trkpt>
      <trkpt lat="43.75147" lon="7.26562">
        <ele>359.6</ele>
        <time>2012-11-24T09:00:51Z</time>
      </trkpt>
      <trkpt lat="43.75189" lon="7.26578">
        <ele>360.6</ele>
        <time>2012-11-24T09:00:57Z</time>
      </trkpt>
      <trkpt lat="43.75197" lon="7.26635">
        <ele>358.7</ele>
        <time>2012-11-24T09:01:03Z</time>
      </trkpt>
      <trkpt lat="43.75209" lon="7.26689">
        <ele>358.1</ele>
        <time>2012-11-24T09:01:09Z</time>
      </trkpt>
      <trkpt lat="43.75222" lon="7.26725">
        <ele>356.8</ele>
        <time>2012-11-24T09:01:14Z</time>
      </trkpt>
      <trkpt lat="43.75239" lon="7.26711">
        <ele>354.4</ele>
        <time>2012-11-24T09:01:20Z</time>
      </trkpt>
      <trkpt lat="43.7525" lon="7.26693">
        <ele>352.1</ele>
        <time>2012-11-24T09:01:26Z</time>
      </trkpt>
      <trkpt lat="43.7526" lon="7.26672">
        <ele>351.3</ele>
        <time>2012-11-24T09:01:32Z</time>
      </trkpt>
      <trkpt lat="43.75271" lon="7.2665">
        <ele>350.6</ele>
        <time>2012-11-24T09:01:38Z</time>
      </trkpt>
      <trkpt lat="43.75278" lon="7.26632">
        <ele>350.5</ele>
        <time>2012-11-24T09:01:43Z</time>
      </trkpt>
      <trkpt lat="43.75285" lon="7.26612">
        <ele>350.9</ele>
        <time>2012-11-24T09:01:49Z</time>
      </trkpt>
      <trkpt lat="43.75287" lon="7.26596">
        <ele>351.2</ele>
        <time>2012-11-24T09:01:54Z</time>
      </trkpt>
      <trkpt lat="43.75293" lon="7.26579">
        <ele>352.7</ele>
        <time>2012-11-24T09:02:00Z</time>
      </trkpt>
      <trkpt lat="43.75301" lon="7.26569">
        <ele>352.6</ele>
        <time>2012-11-24T09:02:05Z</time>
      </trkpt>
      <trkpt lat="43.75308" lon="7.26552">
        <ele>352.2</ele>
        <time>2012-11-24T09:02:11Z</time>
      </trkpt>
      <trkpt lat="43.75316" lon="7.2654">
        <ele>352.1</ele>
        <time>2012-11-24T09:02:16Z</time>
      </trkpt>
      <trkpt lat="43.75323" lon="7.26525">
        <ele>352.9</ele>
        <time>2012-11-24T09:02:21Z</time>
      </trkpt>
      <trkpt lat="43.75331" lon="7.2651">
        <ele>354.3</ele>
        <time>2012-11-24T09:02:27Z</time>
      </trkpt>
      <trkpt lat="43.7534" lon="7.26495">
        <ele>355.8</ele>
        <time>2012-11-24T09:02:33Z</time>
      </trkpt>
      <trkpt lat="43.75354" lon="7.26487">
        <ele>356</ele>
        <time>2012-11-24T09:02:39Z</time>
      </trkpt>
      <trkpt lat="43.75364" lon="7.26473">
        <ele>356.9</ele>
        <time>2012-11-24T09:02:45Z</time>
      </trkpt>
      <trkpt lat="43.75374" lon="7.2646">
        <ele>358.7</ele>
        <time>2012-11-24T09:02:51Z</time>
      </trkpt>
      <trkpt lat="43.75385" lon="7.2645">
        <ele>360.2</ele>
        <time>2012-11-24T09:02:57Z</time>
      </trkpt>
      <trkpt lat="43.75399" lon="7.26445">
        <ele>362.2</ele>
        <time>2012-11-24T09:03:03Z</time>
      </trkpt>
      <trkpt lat="43.75411" lon="7.26439">
        <ele>364</ele>
        <time>2012-11-24T09:03:09Z</time>
      </trkpt>
      <trkpt lat="43.75424" lon="7.26438">
        <ele>364.5</ele>
        <time>2012-11-24T09:03:14Z</time>
      </trkpt>
      <trkpt lat="43.75435" lon="7.26434">
        <ele>364.9</ele>
        <time>2012-11-24T09:03:20Z</time>
      </trkpt>
      <trkpt lat="43.75445" lon="7.2643">
        <ele>365.3</ele>
        <time>2012-11-24T09:03:25Z</time>
      </trkpt>
      <trkpt lat="43.75457" lon="7.26421">
        <ele>366.6</ele>
        <time>2012-11-24T09:03:31Z</time>
      </trkpt>
      <trkpt lat="43.75467" lon="7.26415">
        <ele>368.1</ele>
        <time>2012-11-24T09:03:36Z</time>
      </trkpt>
      <trkpt lat="43.75479" lon="7.26408">
        <ele>369.9</ele>
        <time>2012-11-24T09:03:42Z</time>
      </trkpt>
      <trkpt lat="43.75488" lon="7.26399">
        <ele>370.5</ele>
        <time>2012-11-24T09:03:47Z</time>
      </trkpt>
      <trkpt lat="43.75494" lon="7.26384">
        <ele>371.3</ele>
        <time>2012-11-24T09:03:53Z</time>
      </trkpt>
      <trkpt lat="43.75499" lon="7.26369">
        <ele>372.2</ele>
        <time>2012-11-24T09:03:58Z</time>
      </trkpt>
      <trkpt lat="43.75511" lon="7.26356">
        <ele>372.7</ele>
        <time>2012-11-24T09:04:04Z</time>
      </trkpt>
      <trkpt lat="43.7552" lon="7.26343">
        <ele>373.8</ele>
        <time>2012-11-24T09:04:09Z</time>
      </trkpt>
      <trkpt lat="43.75527" lon="7.26327">
        <ele>374.2</ele>
        <time>2012-11-24T09:04:14Z</time>
      </trkpt>
      <trkpt lat="43.75538" lon="7.26308">
        <ele>374.6</ele>
        <time>2012-11-24T09:04:20Z</time>
      </trkpt>
      <trkpt lat="43.75545" lon="7.26291">
        <ele>375</ele>
        <time>2012-11-24T09:04:25Z</time>
      </trkpt>
      <trkpt lat="43.75551" lon="7.26271">
        <ele>374.9</ele>
        <time>2012-11-24T09:04:30Z</time>
      </trkpt>
      <trkpt lat="43.75562" lon="7.26256">
        <ele>375.8</ele>
        <time>2012-11-24T09:04:36Z</time>
      </trkpt>
      <trkpt lat="43.75574" lon="7.26246">
        <ele>376.5</ele>
        <time>2012-11-24T09:04:41Z</time>
      </trkpt>
      <trkpt lat="43.75588" lon="7.26234">
        <ele>378.4</ele>
        <time>2012-11-24T09:04:47Z</time>
      </trkpt>
      <trkpt lat="43.75602" lon="7.26223">
        <ele>380</ele>
        <time>2012-11-24T09:04:53Z</time>
      </trkpt>
      <trkpt lat="43.75616" lon="7.26212">
        <ele>380</ele>
        <time>2012-11-24T09:04:59Z</time>
      </trkpt>
      <trkpt lat="43.75628" lon="7.26201">
        <ele>379.8</ele>
        <time>2012-11-24T09:05:04Z</time>
      </trkpt>
      <trkpt lat="43.75644" lon="7.26188">
        <ele>379.4</ele>
        <time>2012-11-24T09:05:10Z</time>
      </trkpt>
      <trkpt lat="43.7566" lon="7.26178">
        <ele>379.6</ele>
        <time>2012-11-24T09:05:15Z</time>
      </trkpt>
      <trkpt lat="43.75681" lon="7.26171">
        <ele>380.9</ele>
        <time>2012-11-24T09:05:21Z</time>
      </trkpt>
      <trkpt lat="43.75699" lon="7.2616">
        <ele>380.9</ele>
        <time>2012-11-24T09:05:27Z</time>
      </trkpt>
      <trkpt lat="43.75719" lon="7.26155">
        <ele>381.3</ele>
        <time>2012-11-24T09:05:33Z</time>
      </trkpt>
      <trkpt lat="43.75735" lon="7.26149">
        <ele>383.2</ele>
        <time>2012-11-24T09:05:39Z</time>
      </trkpt>
      <trkpt lat="43.7575" lon="7.26143">
        <ele>383.3</ele>
        <time>2012-11-24T09:05:45Z</time>
      </trkpt>
      <trkpt lat="43.75763" lon="7.26134">
        <ele>383.4</ele>
        <time>2012-11-24T09:05:51Z</time>
      </trkpt>
      <trkpt lat="43.75775" lon="7.26122">
        <ele>384.8</ele>
        <time>2012-11-24T09:05:57Z</time>
      </trkpt>
      <trkpt lat="43.75787" lon="7.26112">
        <ele>386.6</ele>
        <time>2012-11-24T09:06:02Z</time>
      </trkpt>
      <trkpt lat="43.75801" lon="7.26102">
        <ele>387.3</ele>
        <time>2012-11-24T09:06:08Z</time>
      </trkpt>
      <trkpt lat="43.75814" lon="7.2609">
        <ele>388.7</ele>
        <time>2012-11-24T09:06:14Z</time>
      </trkpt>
      <trkpt lat="43.75829" lon="7.26081">
        <ele>390.1</ele>
        <time>2012-11-24T09:06:20Z</time>
      </trkpt>
      <trkpt lat="43.75844" lon="7.26075">
        <ele>390.9</ele>
        <time>2012-11-24T09:06:26Z</time>
      </trkpt>
      <trkpt lat="43.75857" lon="7.26071">
        <ele>391.6</ele>
        <time>2012-11-24T09:06:31Z</time>
      </trkpt>
      <trkpt lat="43.75869" lon="7.26067">
        <ele>391.9</ele>
        <time>2012-11-24T09:06:37Z</time>
      </trkpt>
      <trkpt lat="43.75881" lon="7.26064">
        <ele>393.5</ele>
        <time>2012-11-24T09:06:43Z</time>
      </trkpt>
      <trkpt lat="43.75894" lon="7.26056">
        <ele>394.8</ele>
        <time>2012-11-24T09:06:49Z</time>
      </trkpt>
      <trkpt lat="43.75909" lon="7.26052">
        <ele>395.7</ele>
        <time>2012-11-24T09:06:55Z</time>
      </trkpt>
      <trkpt lat="43.75925" lon="7.26049">
        <ele>397.4</ele>
        <time>2012-11-24T09:07:01Z</time>
      </trkpt>
      <trkpt lat="43.75941" lon="7.26042">
        <ele>398</ele>
        <time>2012-11-24T09:07:07Z</time>
      </trkpt>
      <trkpt lat="43.75957" lon="7.26036">
        <ele>398.3</ele>
        <time>2012-11-24T09:07:13Z</time>
      </trkpt>
      <trkpt lat="43.7597" lon="7.26029">
        <ele>398.8</ele>
        <time>2012-11-24T09:07:19Z</time>
      </trkpt>
      <trkpt lat="43.75985" lon="7.26025">
        <ele>399</ele>
        <time>2012-11-24T09:07:25Z</time>
      </trkpt>
      <trkpt lat="43.75992" lon="7.26026">
        <ele>400.4</ele>
        <time>2012-11-24T09:07:30Z</time>
      </trkpt>
      <trkpt lat="43.75999" lon="7.2603">
        <ele>407.7</ele>
        <time>2012-11-24T09:08:25Z</time>
      </trkpt>
      <trkpt lat="43.76" lon="7.26023">
        <ele>407.9</ele>
        <time>2012-11-24T09:08:32Z</time>
      </trkpt>
      <trkpt lat="43.76012" lon="7.26023">
        <ele>408.2</ele>
        <time>2012-11-24T09:08:38Z</time>
      </trkpt>
      <trkpt lat="43.7603" lon="7.26019">
        <ele>409.2</ele>
        <time>2012-11-24T09:08:44Z</time>
      </trkpt>
      <trkpt lat="43.76041" lon="7.2601">
        <ele>409.7</ele>
        <time>2012-11-24T09:08:50Z</time>
      </trkpt>
      <trkpt lat="43.76052" lon="7.26">
        <ele>410.6</ele>
        <time>2012-11-24T09:08:56Z</time>
      </trkpt>
      <trkpt lat="43.76068" lon="7.25993">
        <ele>412.5</ele>
        <time>2012-11-24T09:09:02Z</time>
      </trkpt>
      <trkpt lat="43.76078" lon="7.25986">
        <ele>413.6</ele>
        <time>2012-11-24T09:09:07Z</time>
      </trkpt>
      <trkpt lat="43.76086" lon="7.25975">
        <ele>414.6</ele>
        <time>2012-11-24T09:09:13Z</time>
      </trkpt>
      <trkpt lat="43.76098" lon="7.25973">
        <ele>416.6</ele>
        <time>2012-11-24T09:09:20Z</time>
      </trkpt>
      <trkpt lat="43.76107" lon="7.25978">
        <ele>418.4</ele>
        <time>2012-11-24T09:09:26Z</time>
      </trkpt>
      <trkpt lat="43.76118" lon="7.25993">
        <ele>419.8</ele>
        <time>2012-11-24T09:09:32Z</time>
      </trkpt>
      <trkpt lat="43.76127" lon="7.26004">
        <ele>422.1</ele>
        <time>2012-11-24T09:09:39Z</time>
      </trkpt>
      <trkpt lat="43.76136" lon="7.26014">
        <ele>423.6</ele>
        <time>2012-11-24T09:09:46Z</time>
      </trkpt>
      <trkpt lat="43.76146" lon="7.26018">
        <ele>425.5</ele>
        <time>2012-11-24T09:09:52Z</time>
      </trkpt>
      <trkpt lat="43.76159" lon="7.26023">
        <ele>427.6</ele>
        <time>2012-11-24T09:09:57Z</time>
      </trkpt>
      <trkpt lat="43.7617" lon="7.26018">
        <ele>429</ele>
        <time>2012-11-24T09:10:03Z</time>
      </trkpt>
      <trkpt lat="43.76182" lon="7.26023">
        <ele>430</ele>
        <time>2012-11-24T09:10:09Z</time>
      </trkpt>
      <trkpt lat="43.76192" lon="7.26036">
        <ele>433.4</ele>
        <time>2012-11-24T09:10:15Z</time>
      </trkpt>
      <trkpt lat="43.76202" lon="7.26049">
        <ele>436.4</ele>
        <time>2012-11-24T09:10:21Z</time>
      </trkpt>
      <trkpt lat="43.76214" lon="7.2606">
        <ele>438.1</ele>
        <time>2012-11-24T09:10:28Z</time>
      </trkpt>
      <trkpt lat="43.76227" lon="7.26069">
        <ele>439.9</ele>
        <time>2012-11-24T09:10:35Z</time>
      </trkpt>
      <trkpt lat="43.76234" lon="7.26074">
        <ele>441.4</ele>
        <time>2012-11-24T09:10:41Z</time>
      </trkpt>
      <trkpt lat="43.76241" lon="7.26083">
        <ele>442.9</ele>
        <time>2012-11-24T09:10:46Z</time>
      </trkpt>
      <trkpt lat="43.7625" lon="7.26099">
        <ele>445.4</ele>
        <time>2012-11-24T09:10:52Z</time>
      </trkpt>
      <trkpt lat="43.76255" lon="7.26114">
        <ele>446</ele>
        <time>2012-11-24T09:10:58Z</time>
      </trkpt>
      <trkpt lat="43.7626" lon="7.26126">
        <ele>446.5</ele>
        <time>2012-11-24T09:11:03Z</time>
      </trkpt>
      <trkpt lat="43.76265" lon="7.26135">
        <ele>448.1</ele>
        <time>2012-11-24T09:11:09Z</time>
      </trkpt>
      <trkpt lat="43.76274" lon="7.26146">
        <ele>448.4</ele>
        <time>2012-11-24T09:11:15Z</time>
      </trkpt>
      <trkpt lat="43.76282" lon="7.26153">
        <ele>449.1</ele>
        <time>2012-11-24T09:11:22Z</time>
      </trkpt>
      <trkpt lat="43.76288" lon="7.26159">
        <ele>449.5</ele>
        <time>2012-11-24T09:11:27Z</time>
      </trkpt>
      <trkpt lat="43.76299" lon="7.26167">
        <ele>450.2</ele>
        <time>2012-11-24T09:11:34Z</time>
      </trkpt>
      <trkpt lat="43.76311" lon="7.26178">
        <ele>453.1</ele>
        <time>2012-11-24T09:11:45Z</time>
      </trkpt>
      <trkpt lat="43.76318" lon="7.2619">
        <ele>454.6</ele>
        <time>2012-11-24T09:11:51Z</time>
      </trkpt>
      <trkpt lat="43.76325" lon="7.26203">
        <ele>455.5</ele>
        <time>2012-11-24T09:11:57Z</time>
      </trkpt>
      <trkpt lat="43.76332" lon="7.26215">
        <ele>456.1</ele>
        <time>2012-11-24T09:12:03Z</time>
      </trkpt>
      <trkpt lat="43.76337" lon="7.26231">
        <ele>458.2</ele>
        <time>2012-11-24T09:12:10Z</time>
      </trkpt>
      <trkpt lat="43.76342" lon="7.26242">
        <ele>459</ele>
        <time>2012-11-24T09:12:18Z</time>
      </trkpt>
      <trkpt lat="43.76347" lon="7.26252">
        <ele>460.1</ele>
        <time>2012-11-24T09:12:24Z</time>
      </trkpt>
      <trkpt lat="43.76355" lon="7.26253">
        <ele>462.4</ele>
        <time>2012-11-24T09:12:31Z</time>
      </trkpt>
      <trkpt lat="43.76368" lon="7.26249">
        <ele>465.1</ele>
        <time>2012-11-24T09:12:45Z</time>
      </trkpt>
      <trkpt lat="43.76379" lon="7.26247">
        <ele>465.4</ele>
        <time>2012-11-24T09:12:52Z</time>
      </trkpt>
      <trkpt lat="43.76389" lon="7.26244">
        <ele>466.5</ele>
        <time>2012-11-24T09:12:58Z</time>
      </trkpt>
      <trkpt lat="43.76399" lon="7.26243">
        <ele>467.1</ele>
        <time>2012-11-24T09:13:04Z</time>
      </trkpt>
      <trkpt lat="43.76408" lon="7.26244">
        <ele>467.9</ele>
        <time>2012-11-24T09:13:10Z</time>
      </trkpt>
      <trkpt lat="43.76415" lon="7.26248">
        <ele>469.1</ele>
        <time>2012-11-24T09:13:15Z</time>
      </trkpt>
      <trkpt lat="43.76424" lon="7.26264">
        <ele>471.1</ele>
        <time>2012-11-24T09:13:21Z</time>
      </trkpt>
      <trkpt lat="43.7643" lon="7.26282">
        <ele>473.3</ele>
        <time>2012-11-24T09:13:27Z</time>
      </trkpt>
      <trkpt lat="43.76422" lon="7.26297">
        <ele>472.4</ele>
        <time>2012-11-24T09:13:34Z</time>
      </trkpt>
      <trkpt lat="43.76415" lon="7.26308">
        <ele>471.6</ele>
        <time>2012-11-24T09:13:39Z</time>
      </trkpt>
      <trkpt lat="43.76408" lon="7.2632">
        <ele>472.3</ele>
        <time>2012-11-24T09:13:45Z</time>
      </trkpt>
      <trkpt lat="43.76398" lon="7.2633">
        <ele>473.1</ele>
        <time>2012-11-24T09:13:52Z</time>
      </trkpt>
      <trkpt lat="43.76389" lon="7.26341">
        <ele>472.7</ele>
        <time>2012-11-24T09:13:58Z</time>
      </trkpt>
      <trkpt lat="43.7638" lon="7.26353">
        <ele>472.8</ele>
        <time>2012-11-24T09:14:06Z</time>
      </trkpt>
      <trkpt lat="43.76369" lon="7.26368">
        <ele>474.2</ele>
        <time>2012-11-24T09:14:16Z</time>
      </trkpt>
      <trkpt lat="43.76362" lon="7.26381">
        <ele>473.8</ele>
        <time>2012-11-24T09:14:22Z</time>
      </trkpt>
      <trkpt lat="43.76357" lon="7.26392">
        <ele>473.8</ele>
        <time>2012-11-24T09:14:27Z</time>
      </trkpt>
      <trkpt lat="43.76361" lon="7.26391">
        <ele>473.7</ele>
        <time>2012-11-24T09:14:33Z</time>
      </trkpt>
      <trkpt lat="43.76368" lon="7.26382">
        <ele>474.7</ele>
        <time>2012-11-24T09:14:39Z</time>
      </trkpt>
      <trkpt lat="43.76375" lon="7.26369">
        <ele>476</ele>
        <time>2012-11-24T09:14:46Z</time>
      </trkpt>
      <trkpt lat="43.76382" lon="7.2636">
        <ele>476.6</ele>
        <time>2012-11-24T09:14:52Z</time>
      </trkpt>
      <trkpt lat="43.76392" lon="7.2635">
        <ele>478.7</ele>
        <time>2012-11-24T09:14:59Z</time>
      </trkpt>
      <trkpt lat="43.76401" lon="7.26345">
        <ele>480</ele>
        <time>2012-11-24T09:15:05Z</time>
      </trkpt>
      <trkpt lat="43.7641" lon="7.26337">
        <ele>481.4</ele>
        <time>2012-11-24T09:15:12Z</time>
      </trkpt>
      <trkpt lat="43.7642" lon="7.26335">
        <ele>481.5</ele>
        <time>2012-11-24T09:15:18Z</time>
      </trkpt>
      <trkpt lat="43.76431" lon="7.26328">
        <ele>483.4</ele>
        <time>2012-11-24T09:15:25Z</time>
      </trkpt>
      <trkpt lat="43.76438" lon="7.26319">
        <ele>483.7</ele>
        <time>2012-11-24T09:15:32Z</time>
      </trkpt>
      <trkpt lat="43.76449" lon="7.26317">
        <ele>484</ele>
        <time>2012-11-24T09:15:38Z</time>
      </trkpt>
      <trkpt lat="43.76457" lon="7.2631">
        <ele>485.3</ele>
        <time>2012-11-24T09:15:44Z</time>
      </trkpt>
      <trkpt lat="43.76466" lon="7.26299">
        <ele>487.3</ele>
        <time>2012-11-24T09:15:51Z</time>
      </trkpt>
      <trkpt lat="43.76473" lon="7.26291">
        <ele>488.6</ele>
        <time>2012-11-24T09:15:56Z</time>
      </trkpt>
      <trkpt lat="43.76483" lon="7.26287">
        <ele>489.7</ele>
        <time>2012-11-24T09:16:02Z</time>
      </trkpt>
      <trkpt lat="43.76495" lon="7.26282">
        <ele>491.1</ele>
        <time>2012-11-24T09:16:09Z</time>
      </trkpt>
      <trkpt lat="43.76511" lon="7.26265">
        <ele>493.3</ele>
        <time>2012-11-24T09:16:23Z</time>
      </trkpt>
      <trkpt lat="43.76518" lon="7.26256">
        <ele>493.5</ele>
        <time>2012-11-24T09:16:29Z</time>
      </trkpt>
      <trkpt lat="43.76526" lon="7.26249">
        <ele>495</ele>
        <time>2012-11-24T09:16:35Z</time>
      </trkpt>
      <trkpt lat="43.76535" lon="7.26244">
        <ele>495.8</ele>
        <time>2012-11-24T09:16:41Z</time>
      </trkpt>
      <trkpt lat="43.76541" lon="7.26239">
        <ele>496.5</ele>
        <time>2012-11-24T09:16:46Z</time>
      </trkpt>
      <trkpt lat="43.76539" lon="7.26227">
        <ele>497.1</ele>
        <time>2012-11-24T09:16:52Z</time>
      </trkpt>
      <trkpt lat="43.7653" lon="7.2622">
        <ele>497.3</ele>
        <time>2012-11-24T09:16:58Z</time>
      </trkpt>
      <trkpt lat="43.76523" lon="7.26215">
        <ele>497.5</ele>
        <time>2012-11-24T09:17:03Z</time>
      </trkpt>
      <trkpt lat="43.76513" lon="7.26204">
        <ele>498.3</ele>
        <time>2012-11-24T09:17:10Z</time>
      </trkpt>
      <trkpt lat="43.76506" lon="7.26196">
        <ele>499.4</ele>
        <time>2012-11-24T09:17:16Z</time>
      </trkpt>
      <trkpt lat="43.765" lon="7.26186">
        <ele>501.4</ele>
        <time>2012-11-24T09:17:23Z</time>
      </trkpt>
      <trkpt lat="43.76494" lon="7.26177">
        <ele>502.7</ele>
        <time>2012-11-24T09:17:29Z</time>
      </trkpt>
      <trkpt lat="43.76493" lon="7.26167">
        <ele>501.7</ele>
        <time>2012-11-24T09:17:50Z</time>
      </trkpt>
      <trkpt lat="43.76485" lon="7.26157">
        <ele>501.9</ele>
        <time>2012-11-24T09:17:56Z</time>
      </trkpt>
      <trkpt lat="43.76479" lon="7.2615">
        <ele>502.8</ele>
        <time>2012-11-24T09:18:02Z</time>
      </trkpt>
      <trkpt lat="43.76473" lon="7.26145">
        <ele>503.5</ele>
        <time>2012-11-24T09:18:08Z</time>
      </trkpt>
      <trkpt lat="43.76451" lon="7.26125">
        <ele>504.7</ele>
        <time>2012-11-24T09:18:27Z</time>
      </trkpt>
      <trkpt lat="43.76442" lon="7.26122">
        <ele>504.4</ele>
        <time>2012-11-24T09:18:33Z</time>
      </trkpt>
      <trkpt lat="43.76434" lon="7.26108">
        <ele>506.4</ele>
        <time>2012-11-24T09:18:40Z</time>
      </trkpt>
      <trkpt lat="43.76444" lon="7.26095">
        <ele>507.4</ele>
        <time>2012-11-24T09:18:46Z</time>
      </trkpt>
      <trkpt lat="43.76454" lon="7.26097">
        <ele>508</ele>
        <time>2012-11-24T09:18:52Z</time>
      </trkpt>
      <trkpt lat="43.76463" lon="7.26095">
        <ele>509.3</ele>
        <time>2012-11-24T09:19:00Z</time>
      </trkpt>
      <trkpt lat="43.76473" lon="7.26097">
        <ele>510.2</ele>
        <time>2012-11-24T09:19:06Z</time>
      </trkpt>
      <trkpt lat="43.7648" lon="7.26102">
        <ele>512</ele>
        <time>2012-11-24T09:19:11Z</time>
      </trkpt>
      <trkpt lat="43.76489" lon="7.2611">
        <ele>513.1</ele>
        <time>2012-11-24T09:19:16Z</time>
      </trkpt>
      <trkpt lat="43.76523" lon="7.26132">
        <ele>518.8</ele>
        <time>2012-11-24T09:19:41Z</time>
      </trkpt>
      <trkpt lat="43.76532" lon="7.26138">
        <ele>521</ele>
        <time>2012-11-24T09:19:46Z</time>
      </trkpt>
      <trkpt lat="43.76541" lon="7.26142">
        <ele>522.9</ele>
        <time>2012-11-24T09:19:52Z</time>
      </trkpt>
      <trkpt lat="43.76548" lon="7.26144">
        <ele>523.2</ele>
        <time>2012-11-24T09:19:57Z</time>
      </trkpt>
      <trkpt lat="43.76565" lon="7.26152">
        <ele>523.1</ele>
        <time>2012-11-24T09:20:09Z</time>
      </trkpt>
      <trkpt lat="43.76573" lon="7.26159">
        <ele>524.4</ele>
        <time>2012-11-24T09:20:15Z</time>
      </trkpt>
      <trkpt lat="43.76588" lon="7.2617">
        <ele>525.3</ele>
        <time>2012-11-24T09:20:26Z</time>
      </trkpt>
      <trkpt lat="43.76597" lon="7.26181">
        <ele>525.2</ele>
        <time>2012-11-24T09:20:32Z</time>
      </trkpt>
      <trkpt lat="43.76611" lon="7.26193">
        <ele>525</ele>
        <time>2012-11-24T09:20:41Z</time>
      </trkpt>
      <trkpt lat="43.76617" lon="7.26199">
        <ele>526.5</ele>
        <time>2012-11-24T09:20:46Z</time>
      </trkpt>
      <trkpt lat="43.76628" lon="7.26211">
        <ele>528.5</ele>
        <time>2012-11-24T09:20:55Z</time>
      </trkpt>
      <trkpt lat="43.76637" lon="7.26222">
        <ele>530.7</ele>
        <time>2012-11-24T09:21:01Z</time>
      </trkpt>
      <trkpt lat="43.76641" lon="7.26233">
        <ele>532.2</ele>
        <time>2012-11-24T09:21:07Z</time>
      </trkpt>
      <trkpt lat="43.76638" lon="7.26246">
        <ele>532</ele>
        <time>2012-11-24T09:21:13Z</time>
      </trkpt>
      <trkpt lat="43.76634" lon="7.2626">
        <ele>532.3</ele>
        <time>2012-11-24T09:21:19Z</time>
      </trkpt>
      <trkpt lat="43.76628" lon="7.2627">
        <ele>532.5</ele>
        <time>2012-11-24T09:21:26Z</time>
      </trkpt>
      <trkpt lat="43.76615" lon="7.2629">
        <ele>532.7</ele>
        <time>2012-11-24T09:21:46Z</time>
      </trkpt>
      <trkpt lat="43.7661" lon="7.26298">
        <ele>532.6</ele>
        <time>2012-11-24T09:21:51Z</time>
      </trkpt>
      <trkpt lat="43.76603" lon="7.26309">
        <ele>533.3</ele>
        <time>2012-11-24T09:21:57Z</time>
      </trkpt>
      <trkpt lat="43.76597" lon="7.26319">
        <ele>533.9</ele>
        <time>2012-11-24T09:22:03Z</time>
      </trkpt>
      <trkpt lat="43.7659" lon="7.26331">
        <ele>534.5</ele>
        <time>2012-11-24T09:22:09Z</time>
      </trkpt>
      <trkpt lat="43.76581" lon="7.26343">
        <ele>535.8</ele>
        <time>2012-11-24T09:22:15Z</time>
      </trkpt>
      <trkpt lat="43.76573" lon="7.26355">
        <ele>536.8</ele>
        <time>2012-11-24T09:22:22Z</time>
      </trkpt>
      <trkpt lat="43.76567" lon="7.26365">
        <ele>536.8</ele>
        <time>2012-11-24T09:22:28Z</time>
      </trkpt>
      <trkpt lat="43.76561" lon="7.26376">
        <ele>536.7</ele>
        <time>2012-11-24T09:22:34Z</time>
      </trkpt>
      <trkpt lat="43.76555" lon="7.26385">
        <ele>537.2</ele>
        <time>2012-11-24T09:22:40Z</time>
      </trkpt>
      <trkpt lat="43.76548" lon="7.26396">
        <ele>537.9</ele>
        <time>2012-11-24T09:22:47Z</time>
      </trkpt>
      <trkpt lat="43.76542" lon="7.26405">
        <ele>539.3</ele>
        <time>2012-11-24T09:22:52Z</time>
      </trkpt>
      <trkpt lat="43.76534" lon="7.26417">
        <ele>539.8</ele>
        <time>2012-11-24T09:22:58Z</time>
      </trkpt>
      <trkpt lat="43.76528" lon="7.26426">
        <ele>540.4</ele>
        <time>2012-11-24T09:23:03Z</time>
      </trkpt>
      <trkpt lat="43.76531" lon="7.26433">
        <ele>541.8</ele>
        <time>2012-11-24T09:23:10Z</time>
      </trkpt>
      <trkpt lat="43.76536" lon="7.26421">
        <ele>543</ele>
        <time>2012-11-24T09:23:15Z</time>
      </trkpt>
      <trkpt lat="43.76544" lon="7.26413">
        <ele>542.7</ele>
        <time>2012-11-24T09:23:21Z</time>
      </trkpt>
      <trkpt lat="43.76551" lon="7.26408">
        <ele>543</ele>
        <time>2012-11-24T09:23:27Z</time>
      </trkpt>
      <trkpt lat="43.76557" lon="7.26401">
        <ele>543.6</ele>
        <time>2012-11-24T09:23:33Z</time>
      </trkpt>
      <trkpt lat="43.76567" lon="7.26394">
        <ele>545.7</ele>
        <time>2012-11-24T09:23:39Z</time>
      </trkpt>
      <trkpt lat="43.76574" lon="7.2639">
        <ele>545.8</ele>
        <time>2012-11-24T09:23:45Z</time>
      </trkpt>
      <trkpt lat="43.76583" lon="7.26386">
        <ele>547.8</ele>
        <time>2012-11-24T09:23:51Z</time>
      </trkpt>
      <trkpt lat="43.76595" lon="7.26382">
        <ele>550.1</ele>
        <time>2012-11-24T09:23:58Z</time>
      </trkpt>
      <trkpt lat="43.76601" lon="7.26377">
        <ele>550.5</ele>
        <time>2012-11-24T09:24:03Z</time>
      </trkpt>
      <trkpt lat="43.7661" lon="7.26373">
        <ele>549.9</ele>
        <time>2012-11-24T09:24:09Z</time>
      </trkpt>
      <trkpt lat="43.76617" lon="7.26362">
        <ele>550.5</ele>
        <time>2012-11-24T09:24:16Z</time>
      </trkpt>
      <trkpt lat="43.76624" lon="7.26355">
        <ele>551.9</ele>
        <time>2012-11-24T09:24:22Z</time>
      </trkpt>
      <trkpt lat="43.7663" lon="7.26354">
        <ele>553.5</ele>
        <time>2012-11-24T09:24:27Z</time>
      </trkpt>
      <trkpt lat="43.76637" lon="7.26347">
        <ele>554.8</ele>
        <time>2012-11-24T09:24:33Z</time>
      </trkpt>
      <trkpt lat="43.76644" lon="7.26342">
        <ele>556.5</ele>
        <time>2012-11-24T09:24:39Z</time>
      </trkpt>
      <trkpt lat="43.76654" lon="7.26335">
        <ele>558.7</ele>
        <time>2012-11-24T09:24:46Z</time>
      </trkpt>
      <trkpt lat="43.76664" lon="7.26326">
        <ele>560.1</ele>
        <time>2012-11-24T09:24:55Z</time>
      </trkpt>
      <trkpt lat="43.76673" lon="7.26317">
        <ele>562.5</ele>
        <time>2012-11-24T09:25:02Z</time>
      </trkpt>
      <trkpt lat="43.76694" lon="7.26292">
        <ele>567.6</ele>
        <time>2012-11-24T09:25:22Z</time>
      </trkpt>
      <trkpt lat="43.76701" lon="7.26282">
        <ele>568.3</ele>
        <time>2012-11-24T09:25:29Z</time>
      </trkpt>
      <trkpt lat="43.76709" lon="7.26278">
        <ele>568.8</ele>
        <time>2012-11-24T09:25:34Z</time>
      </trkpt>
      <trkpt lat="43.76716" lon="7.2627">
        <ele>569.5</ele>
        <time>2012-11-24T09:25:40Z</time>
      </trkpt>
      <trkpt lat="43.76728" lon="7.26253">
        <ele>569.4</ele>
        <time>2012-11-24T09:25:53Z</time>
      </trkpt>
      <trkpt lat="43.76732" lon="7.26245">
        <ele>569.6</ele>
        <time>2012-11-24T09:25:59Z</time>
      </trkpt>
      <trkpt lat="43.76738" lon="7.26237">
        <ele>569.3</ele>
        <time>2012-11-24T09:26:06Z</time>
      </trkpt>
      <trkpt lat="43.76745" lon="7.2623">
        <ele>570.2</ele>
        <time>2012-11-24T09:26:13Z</time>
      </trkpt>
      <trkpt lat="43.76751" lon="7.26221">
        <ele>570.2</ele>
        <time>2012-11-24T09:26:18Z</time>
      </trkpt>
      <trkpt lat="43.76756" lon="7.26212">
        <ele>570.1</ele>
        <time>2012-11-24T09:26:24Z</time>
      </trkpt>
      <trkpt lat="43.76755" lon="7.262">
        <ele>569.5</ele>
        <time>2012-11-24T09:26:32Z</time>
      </trkpt>
      <trkpt lat="43.7675" lon="7.26186">
        <ele>570.3</ele>
        <time>2012-11-24T09:26:39Z</time>
      </trkpt>
      <trkpt lat="43.76743" lon="7.26178">
        <ele>571.1</ele>
        <time>2012-11-24T09:26:45Z</time>
      </trkpt>
      <trkpt lat="43.76737" lon="7.26169">
        <ele>571.9</ele>
        <time>2012-11-24T09:26:51Z</time>
      </trkpt>
      <trkpt lat="43.76732" lon="7.26157">
        <ele>571.9</ele>
        <time>2012-11-24T09:26:57Z</time>
      </trkpt>
      <trkpt lat="43.76725" lon="7.26149">
        <ele>572.4</ele>
        <time>2012-11-24T09:27:03Z</time>
      </trkpt>
      <trkpt lat="43.76719" lon="7.2614">
        <ele>573.7</ele>
        <time>2012-11-24T09:27:09Z</time>
      </trkpt>
      <trkpt lat="43.76714" lon="7.26132">
        <ele>574.4</ele>
        <time>2012-11-24T09:27:15Z</time>
      </trkpt>
      <trkpt lat="43.76708" lon="7.2612">
        <ele>574.7</ele>
        <time>2012-11-24T09:27:31Z</time>
      </trkpt>
      <trkpt lat="43.76698" lon="7.26103">
        <ele>577.6</ele>
        <time>2012-11-24T09:27:45Z</time>
      </trkpt>
      <trkpt lat="43.76693" lon="7.26093">
        <ele>579.2</ele>
        <time>2012-11-24T09:27:51Z</time>
      </trkpt>
      <trkpt lat="43.76688" lon="7.26083">
        <ele>580</ele>
        <time>2012-11-24T09:27:57Z</time>
      </trkpt>
      <trkpt lat="43.76684" lon="7.26073">
        <ele>580.6</ele>
        <time>2012-11-24T09:28:03Z</time>
      </trkpt>
      <trkpt lat="43.76678" lon="7.26061">
        <ele>582.3</ele>
        <time>2012-11-24T09:28:12Z</time>
      </trkpt>
      <trkpt lat="43.76673" lon="7.2605">
        <ele>582.9</ele>
        <time>2012-11-24T09:28:18Z</time>
      </trkpt>
      <trkpt lat="43.76666" lon="7.26047">
        <ele>583.5</ele>
        <time>2012-11-24T09:28:23Z</time>
      </trkpt>
      <trkpt lat="43.76656" lon="7.26043">
        <ele>584.1</ele>
        <time>2012-11-24T09:28:29Z</time>
      </trkpt>
      <trkpt lat="43.7666" lon="7.26028">
        <ele>583.1</ele>
        <time>2012-11-24T09:28:35Z</time>
      </trkpt>
      <trkpt lat="43.76681" lon="7.26045">
        <ele>587.2</ele>
        <time>2012-11-24T09:28:54Z</time>
      </trkpt>
      <trkpt lat="43.76704" lon="7.26064">
        <ele>591.2</ele>
        <time>2012-11-24T09:29:16Z</time>
      </trkpt>
      <trkpt lat="43.7671" lon="7.26069">
        <ele>592.5</ele>
        <time>2012-11-24T09:29:22Z</time>
      </trkpt>
      <trkpt lat="43.76729" lon="7.26084">
        <ele>595.3</ele>
        <time>2012-11-24T09:29:35Z</time>
      </trkpt>
      <trkpt lat="43.76737" lon="7.26092">
        <ele>596.5</ele>
        <time>2012-11-24T09:29:40Z</time>
      </trkpt>
      <trkpt lat="43.76758" lon="7.26111">
        <ele>599.7</ele>
        <time>2012-11-24T09:29:59Z</time>
      </trkpt>
      <trkpt lat="43.76796" lon="7.26147">
        <ele>603.7</ele>
        <time>2012-11-24T09:30:32Z</time>
      </trkpt>
      <trkpt lat="43.76831" lon="7.26173">
        <ele>608</ele>
        <time>2012-11-24T09:31:02Z</time>
      </trkpt>
      <trkpt lat="43.76839" lon="7.26181">
        <ele>608.9</ele>
        <time>2012-11-24T09:31:07Z</time>
      </trkpt>
      <trkpt lat="43.76844" lon="7.26195">
        <ele>609.7</ele>
        <time>2012-11-24T09:31:13Z</time>
      </trkpt>
      <trkpt lat="43.76845" lon="7.26211">
        <ele>610.3</ele>
        <time>2012-11-24T09:31:19Z</time>
      </trkpt>
      <trkpt lat="43.76842" lon="7.26225">
        <ele>610.8</ele>
        <time>2012-11-24T09:31:25Z</time>
      </trkpt>
      <trkpt lat="43.76833" lon="7.26246">
        <ele>611.7</ele>
        <time>2012-11-24T09:31:37Z</time>
      </trkpt>
      <trkpt lat="43.76823" lon="7.26271">
        <ele>612.6</ele>
        <time>2012-11-24T09:31:53Z</time>
      </trkpt>
      <trkpt lat="43.76819" lon="7.26281">
        <ele>613</ele>
        <time>2012-11-24T09:31:59Z</time>
      </trkpt>
      <trkpt lat="43.76813" lon="7.26293">
        <ele>614.2</ele>
        <time>2012-11-24T09:32:06Z</time>
      </trkpt>
      <trkpt lat="43.7681" lon="7.26305">
        <ele>615.7</ele>
        <time>2012-11-24T09:32:12Z</time>
      </trkpt>
      <trkpt lat="43.76807" lon="7.26316">
        <ele>616.1</ele>
        <time>2012-11-24T09:32:18Z</time>
      </trkpt>
      <trkpt lat="43.768" lon="7.26331">
        <ele>618.3</ele>
        <time>2012-11-24T09:32:23Z</time>
      </trkpt>
      <trkpt lat="43.76789" lon="7.26357">
        <ele>619.4</ele>
        <time>2012-11-24T09:32:29Z</time>
      </trkpt>
      <trkpt lat="43.76779" lon="7.26376">
        <ele>619.7</ele>
        <time>2012-11-24T09:32:35Z</time>
      </trkpt>
      <trkpt lat="43.76773" lon="7.26388">
        <ele>620.7</ele>
        <time>2012-11-24T09:32:41Z</time>
      </trkpt>
      <trkpt lat="43.7676" lon="7.26405">
        <ele>624.1</ele>
        <time>2012-11-24T09:32:54Z</time>
      </trkpt>
      <trkpt lat="43.76751" lon="7.26421">
        <ele>625.4</ele>
        <time>2012-11-24T09:33:05Z</time>
      </trkpt>
      <trkpt lat="43.76747" lon="7.26431">
        <ele>626</ele>
        <time>2012-11-24T09:33:11Z</time>
      </trkpt>
      <trkpt lat="43.76742" lon="7.26441">
        <ele>626.7</ele>
        <time>2012-11-24T09:33:17Z</time>
      </trkpt>
      <trkpt lat="43.76737" lon="7.26451">
        <ele>627.3</ele>
        <time>2012-11-24T09:33:23Z</time>
      </trkpt>
      <trkpt lat="43.76739" lon="7.26463">
        <ele>629.6</ele>
        <time>2012-11-24T09:33:37Z</time>
      </trkpt>
      <trkpt lat="43.76746" lon="7.26451">
        <ele>633.1</ele>
        <time>2012-11-24T09:33:44Z</time>
      </trkpt>
      <trkpt lat="43.76755" lon="7.26441">
        <ele>635.3</ele>
        <time>2012-11-24T09:33:53Z</time>
      </trkpt>
      <trkpt lat="43.76762" lon="7.26434">
        <ele>636.4</ele>
        <time>2012-11-24T09:33:59Z</time>
      </trkpt>
      <trkpt lat="43.76769" lon="7.26427">
        <ele>638</ele>
        <time>2012-11-24T09:34:05Z</time>
      </trkpt>
      <trkpt lat="43.76777" lon="7.26422">
        <ele>639.4</ele>
        <time>2012-11-24T09:34:11Z</time>
      </trkpt>
      <trkpt lat="43.76783" lon="7.26414">
        <ele>640.1</ele>
        <time>2012-11-24T09:34:17Z</time>
      </trkpt>
      <trkpt lat="43.76801" lon="7.26398">
        <ele>642.2</ele>
        <time>2012-11-24T09:34:33Z</time>
      </trkpt>
      <trkpt lat="43.76808" lon="7.26389">
        <ele>642.1</ele>
        <time>2012-11-24T09:34:39Z</time>
      </trkpt>
      <trkpt lat="43.76815" lon="7.26382">
        <ele>642.9</ele>
        <time>2012-11-24T09:34:45Z</time>
      </trkpt>
      <trkpt lat="43.76821" lon="7.26371">
        <ele>644.2</ele>
        <time>2012-11-24T09:34:54Z</time>
      </trkpt>
      <trkpt lat="43.76828" lon="7.26362">
        <ele>644.1</ele>
        <time>2012-11-24T09:35:00Z</time>
      </trkpt>
      <trkpt lat="43.76835" lon="7.26355">
        <ele>645.2</ele>
        <time>2012-11-24T09:35:06Z</time>
      </trkpt>
      <trkpt lat="43.76842" lon="7.26346">
        <ele>645.2</ele>
        <time>2012-11-24T09:35:12Z</time>
      </trkpt>
      <trkpt lat="43.76847" lon="7.26338">
        <ele>645.4</ele>
        <time>2012-11-24T09:35:18Z</time>
      </trkpt>
      <trkpt lat="43.76878" lon="7.26296">
        <ele>651.5</ele>
        <time>2012-11-24T09:35:53Z</time>
      </trkpt>
      <trkpt lat="43.7691" lon="7.2626">
        <ele>656.2</ele>
        <time>2012-11-24T09:36:26Z</time>
      </trkpt>
      <trkpt lat="43.7692" lon="7.26248">
        <ele>658.3</ele>
        <time>2012-11-24T09:36:37Z</time>
      </trkpt>
      <trkpt lat="43.76926" lon="7.26243">
        <ele>658.9</ele>
        <time>2012-11-24T09:36:44Z</time>
      </trkpt>
      <trkpt lat="43.76948" lon="7.26194">
        <ele>662</ele>
        <time>2012-11-24T09:37:19Z</time>
      </trkpt>
      <trkpt lat="43.76942" lon="7.26161">
        <ele>663.5</ele>
        <time>2012-11-24T09:37:40Z</time>
      </trkpt>
      <trkpt lat="43.76944" lon="7.26152">
        <ele>663</ele>
        <time>2012-11-24T09:37:46Z</time>
      </trkpt>
      <trkpt lat="43.76966" lon="7.26166">
        <ele>665</ele>
        <time>2012-11-24T09:38:03Z</time>
      </trkpt>
      <trkpt lat="43.76967" lon="7.26177">
        <ele>665</ele>
        <time>2012-11-24T09:38:08Z</time>
      </trkpt>
      <trkpt lat="43.76956" lon="7.26235">
        <ele>668.8</ele>
        <time>2012-11-24T09:38:39Z</time>
      </trkpt>
      <trkpt lat="43.76955" lon="7.26246">
        <ele>671.1</ele>
        <time>2012-11-24T09:38:46Z</time>
      </trkpt>
      <trkpt lat="43.76936" lon="7.26297">
        <ele>672.3</ele>
        <time>2012-11-24T09:39:17Z</time>
      </trkpt>
      <trkpt lat="43.7692" lon="7.2634">
        <ele>678.7</ele>
        <time>2012-11-24T09:39:43Z</time>
      </trkpt>
      <trkpt lat="43.76912" lon="7.26356">
        <ele>679.7</ele>
        <time>2012-11-24T09:39:53Z</time>
      </trkpt>
      <trkpt lat="43.76908" lon="7.26366">
        <ele>679.9</ele>
        <time>2012-11-24T09:39:59Z</time>
      </trkpt>
      <trkpt lat="43.76904" lon="7.26378">
        <ele>680.2</ele>
        <time>2012-11-24T09:40:05Z</time>
      </trkpt>
      <trkpt lat="43.769" lon="7.26388">
        <ele>680.5</ele>
        <time>2012-11-24T09:40:11Z</time>
      </trkpt>
      <trkpt lat="43.76897" lon="7.264">
        <ele>681.2</ele>
        <time>2012-11-24T09:40:17Z</time>
      </trkpt>
      <trkpt lat="43.76893" lon="7.26411">
        <ele>682.1</ele>
        <time>2012-11-24T09:40:23Z</time>
      </trkpt>
      <trkpt lat="43.76888" lon="7.26422">
        <ele>682.1</ele>
        <time>2012-11-24T09:40:29Z</time>
      </trkpt>
      <trkpt lat="43.76884" lon="7.26434">
        <ele>684.2</ele>
        <time>2012-11-24T09:40:35Z</time>
      </trkpt>
      <trkpt lat="43.7688" lon="7.26445">
        <ele>684.9</ele>
        <time>2012-11-24T09:40:41Z</time>
      </trkpt>
      <trkpt lat="43.76876" lon="7.26456">
        <ele>685.2</ele>
        <time>2012-11-24T09:40:47Z</time>
      </trkpt>
      <trkpt lat="43.76872" lon="7.26467">
        <ele>685.9</ele>
        <time>2012-11-24T09:40:53Z</time>
      </trkpt>
      <trkpt lat="43.76868" lon="7.26479">
        <ele>686.1</ele>
        <time>2012-11-24T09:40:59Z</time>
      </trkpt>
      <trkpt lat="43.76864" lon="7.26491">
        <ele>686.4</ele>
        <time>2012-11-24T09:41:06Z</time>
      </trkpt>
      <trkpt lat="43.7686" lon="7.26506">
        <ele>688.2</ele>
        <time>2012-11-24T09:41:13Z</time>
      </trkpt>
      <trkpt lat="43.76855" lon="7.26519">
        <ele>688.2</ele>
        <time>2012-11-24T09:41:19Z</time>
      </trkpt>
      <trkpt lat="43.76853" lon="7.26531">
        <ele>689</ele>
        <time>2012-11-24T09:41:24Z</time>
      </trkpt>
      <trkpt lat="43.76851" lon="7.26546">
        <ele>690.6</ele>
        <time>2012-11-24T09:41:30Z</time>
      </trkpt>
      <trkpt lat="43.76851" lon="7.26563">
        <ele>692.4</ele>
        <time>2012-11-24T09:41:37Z</time>
      </trkpt>
      <trkpt lat="43.76855" lon="7.26572">
        <ele>694.1</ele>
        <time>2012-11-24T09:41:43Z</time>
      </trkpt>
      <trkpt lat="43.76859" lon="7.26572">
        <ele>695.7</ele>
        <time>2012-11-24T09:41:50Z</time>
      </trkpt>
      <trkpt lat="43.76864" lon="7.26559">
        <ele>696</ele>
        <time>2012-11-24T09:41:57Z</time>
      </trkpt>
      <trkpt lat="43.76867" lon="7.26537">
        <ele>698.7</ele>
        <time>2012-11-24T09:42:08Z</time>
      </trkpt>
      <trkpt lat="43.76873" lon="7.26527">
        <ele>699.8</ele>
        <time>2012-11-24T09:42:14Z</time>
      </trkpt>
      <trkpt lat="43.76881" lon="7.26521">
        <ele>701.5</ele>
        <time>2012-11-24T09:42:20Z</time>
      </trkpt>
      <trkpt lat="43.76885" lon="7.2651">
        <ele>703.7</ele>
        <time>2012-11-24T09:42:26Z</time>
      </trkpt>
      <trkpt lat="43.7689" lon="7.265">
        <ele>705.7</ele>
        <time>2012-11-24T09:42:32Z</time>
      </trkpt>
      <trkpt lat="43.76896" lon="7.26488">
        <ele>707.2</ele>
        <time>2012-11-24T09:42:39Z</time>
      </trkpt>
      <trkpt lat="43.76911" lon="7.26469">
        <ele>708.9</ele>
        <time>2012-11-24T09:42:54Z</time>
      </trkpt>
      <trkpt lat="43.76917" lon="7.26463">
        <ele>709.7</ele>
        <time>2012-11-24T09:43:00Z</time>
      </trkpt>
      <trkpt lat="43.76923" lon="7.26455">
        <ele>710</ele>
        <time>2012-11-24T09:43:06Z</time>
      </trkpt>
      <trkpt lat="43.76943" lon="7.26426">
        <ele>712.2</ele>
        <time>2012-11-24T09:43:28Z</time>
      </trkpt>
      <trkpt lat="43.76949" lon="7.26417">
        <ele>713.3</ele>
        <time>2012-11-24T09:43:34Z</time>
      </trkpt>
      <trkpt lat="43.76954" lon="7.26407">
        <ele>713.2</ele>
        <time>2012-11-24T09:43:40Z</time>
      </trkpt>
      <trkpt lat="43.76976" lon="7.26385">
        <ele>715.6</ele>
        <time>2012-11-24T09:44:00Z</time>
      </trkpt>
      <trkpt lat="43.76981" lon="7.26374">
        <ele>716.2</ele>
        <time>2012-11-24T09:44:07Z</time>
      </trkpt>
      <trkpt lat="43.76997" lon="7.26347">
        <ele>720.6</ele>
        <time>2012-11-24T09:44:25Z</time>
      </trkpt>
      <trkpt lat="43.77004" lon="7.26339">
        <ele>722.3</ele>
        <time>2012-11-24T09:44:31Z</time>
      </trkpt>
      <trkpt lat="43.7701" lon="7.26331">
        <ele>723</ele>
        <time>2012-11-24T09:44:37Z</time>
      </trkpt>
      <trkpt lat="43.7704" lon="7.26292">
        <ele>727.2</ele>
        <time>2012-11-24T09:45:10Z</time>
      </trkpt>
      <trkpt lat="43.77074" lon="7.26265">
        <ele>731.9</ele>
        <time>2012-11-24T09:45:41Z</time>
      </trkpt>
      <trkpt lat="43.77105" lon="7.2623">
        <ele>736.4</ele>
        <time>2012-11-24T09:46:12Z</time>
      </trkpt>
      <trkpt lat="43.7712" lon="7.26212">
        <ele>739.8</ele>
        <time>2012-11-24T09:46:26Z</time>
      </trkpt>
      <trkpt lat="43.77126" lon="7.26205">
        <ele>740.8</ele>
        <time>2012-11-24T09:46:32Z</time>
      </trkpt>
      <trkpt lat="43.77132" lon="7.26198">
        <ele>743.3</ele>
        <time>2012-11-24T09:46:38Z</time>
      </trkpt>
      <trkpt lat="43.77138" lon="7.26189">
        <ele>743.9</ele>
        <time>2012-11-24T09:46:45Z</time>
      </trkpt>
      <trkpt lat="43.77149" lon="7.26179">
        <ele>744.4</ele>
        <time>2012-11-24T09:46:56Z</time>
      </trkpt>
      <trkpt lat="43.77155" lon="7.26171">
        <ele>744.6</ele>
        <time>2012-11-24T09:47:02Z</time>
      </trkpt>
      <trkpt lat="43.77163" lon="7.26161">
        <ele>746</ele>
        <time>2012-11-24T09:47:09Z</time>
      </trkpt>
      <trkpt lat="43.77174" lon="7.26144">
        <ele>748.5</ele>
        <time>2012-11-24T09:47:20Z</time>
      </trkpt>
      <trkpt lat="43.7718" lon="7.26136">
        <ele>749.4</ele>
        <time>2012-11-24T09:47:26Z</time>
      </trkpt>
      <trkpt lat="43.77186" lon="7.26127">
        <ele>750.4</ele>
        <time>2012-11-24T09:47:32Z</time>
      </trkpt>
      <trkpt lat="43.77208" lon="7.26088">
        <ele>757.1</ele>
        <time>2012-11-24T09:47:58Z</time>
      </trkpt>
      <trkpt lat="43.77211" lon="7.26076">
        <ele>756.6</ele>
        <time>2012-11-24T09:48:04Z</time>
      </trkpt>
      <trkpt lat="43.77214" lon="7.26066">
        <ele>758.6</ele>
        <time>2012-11-24T09:48:09Z</time>
      </trkpt>
      <trkpt lat="43.77218" lon="7.26055">
        <ele>759.8</ele>
        <time>2012-11-24T09:48:15Z</time>
      </trkpt>
      <trkpt lat="43.77224" lon="7.26047">
        <ele>760</ele>
        <time>2012-11-24T09:48:21Z</time>
      </trkpt>
      <trkpt lat="43.7723" lon="7.26036">
        <ele>760.1</ele>
        <time>2012-11-24T09:48:27Z</time>
      </trkpt>
      <trkpt lat="43.77237" lon="7.26028">
        <ele>760.6</ele>
        <time>2012-11-24T09:48:33Z</time>
      </trkpt>
      <trkpt lat="43.77242" lon="7.26013">
        <ele>761</ele>
        <time>2012-11-24T09:48:40Z</time>
      </trkpt>
      <trkpt lat="43.77246" lon="7.26001">
        <ele>761.6</ele>
        <time>2012-11-24T09:48:46Z</time>
      </trkpt>
      <trkpt lat="43.77249" lon="7.25991">
        <ele>761.2</ele>
        <time>2012-11-24T09:48:52Z</time>
      </trkpt>
      <trkpt lat="43.77249" lon="7.25976">
        <ele>762.1</ele>
        <time>2012-11-24T09:48:58Z</time>
      </trkpt>
      <trkpt lat="43.77243" lon="7.25964">
        <ele>762.3</ele>
        <time>2012-11-24T09:49:03Z</time>
      </trkpt>
      <trkpt lat="43.77236" lon="7.25956">
        <ele>761.7</ele>
        <time>2012-11-24T09:49:09Z</time>
      </trkpt>
      <trkpt lat="43.7723" lon="7.25955">
        <ele>762.3</ele>
        <time>2012-11-24T09:49:25Z</time>
      </trkpt>
      <trkpt lat="43.7722" lon="7.25949">
        <ele>763.1</ele>
        <time>2012-11-24T09:49:34Z</time>
      </trkpt>
      <trkpt lat="43.77214" lon="7.25942">
        <ele>762.6</ele>
        <time>2012-11-24T09:49:39Z</time>
      </trkpt>
      <trkpt lat="43.77207" lon="7.25938">
        <ele>762.2</ele>
        <time>2012-11-24T09:49:45Z</time>
      </trkpt>
      <trkpt lat="43.77211" lon="7.25936">
        <ele>762.8</ele>
        <time>2012-11-24T09:49:51Z</time>
      </trkpt>
      <trkpt lat="43.77221" lon="7.25936">
        <ele>764.7</ele>
        <time>2012-11-24T09:49:57Z</time>
      </trkpt>
      <trkpt lat="43.77232" lon="7.25942">
        <ele>765.7</ele>
        <time>2012-11-24T09:50:04Z</time>
      </trkpt>
      <trkpt lat="43.7724" lon="7.25941">
        <ele>765.8</ele>
        <time>2012-11-24T09:50:10Z</time>
      </trkpt>
      <trkpt lat="43.77255" lon="7.25936">
        <ele>767.7</ele>
        <time>2012-11-24T09:50:41Z</time>
      </trkpt>
      <trkpt lat="43.77267" lon="7.25933">
        <ele>768</ele>
        <time>2012-11-24T09:50:47Z</time>
      </trkpt>
      <trkpt lat="43.77256" lon="7.25933">
        <ele>767.3</ele>
        <time>2012-11-24T09:53:12Z</time>
      </trkpt>
      <trkpt lat="43.77264" lon="7.25928">
        <ele>768</ele>
        <time>2012-11-24T09:53:17Z</time>
      </trkpt>
      <trkpt lat="43.77276" lon="7.25921">
        <ele>768.6</ele>
        <time>2012-11-24T09:53:24Z</time>
      </trkpt>
      <trkpt lat="43.77284" lon="7.25911">
        <ele>769.7</ele>
        <time>2012-11-24T09:53:29Z</time>
      </trkpt>
      <trkpt lat="43.77296" lon="7.25911">
        <ele>771</ele>
        <time>2012-11-24T09:53:35Z</time>
      </trkpt>
      <trkpt lat="43.77304" lon="7.25905">
        <ele>771.9</ele>
        <time>2012-11-24T09:53:40Z</time>
      </trkpt>
      <trkpt lat="43.77313" lon="7.25898">
        <ele>773</ele>
        <time>2012-11-24T09:53:45Z</time>
      </trkpt>
      <trkpt lat="43.77321" lon="7.25896">
        <ele>773.1</ele>
        <time>2012-11-24T09:53:50Z</time>
      </trkpt>
      <trkpt lat="43.77328" lon="7.25886">
        <ele>774.5</ele>
        <time>2012-11-24T09:53:56Z</time>
      </trkpt>
      <trkpt lat="43.77332" lon="7.25873">
        <ele>774.9</ele>
        <time>2012-11-24T09:54:03Z</time>
      </trkpt>
      <trkpt lat="43.77335" lon="7.25862">
        <ele>775.6</ele>
        <time>2012-11-24T09:54:09Z</time>
      </trkpt>
      <trkpt lat="43.77345" lon="7.2585">
        <ele>777.3</ele>
        <time>2012-11-24T09:54:16Z</time>
      </trkpt>
      <trkpt lat="43.77353" lon="7.25846">
        <ele>778.6</ele>
        <time>2012-11-24T09:54:22Z</time>
      </trkpt>
      <trkpt lat="43.77363" lon="7.25843">
        <ele>779.7</ele>
        <time>2012-11-24T09:54:28Z</time>
      </trkpt>
      <trkpt lat="43.77374" lon="7.25834">
        <ele>781.1</ele>
        <time>2012-11-24T09:54:39Z</time>
      </trkpt>
      <trkpt lat="43.77378" lon="7.25823">
        <ele>781.9</ele>
        <time>2012-11-24T09:54:45Z</time>
      </trkpt>
      <trkpt lat="43.77388" lon="7.25815">
        <ele>783.7</ele>
        <time>2012-11-24T09:54:52Z</time>
      </trkpt>
      <trkpt lat="43.77397" lon="7.25812">
        <ele>784.9</ele>
        <time>2012-11-24T09:54:58Z</time>
      </trkpt>
      <trkpt lat="43.77405" lon="7.25809">
        <ele>785.8</ele>
        <time>2012-11-24T09:55:03Z</time>
      </trkpt>
      <trkpt lat="43.77417" lon="7.25806">
        <ele>786.4</ele>
        <time>2012-11-24T09:55:09Z</time>
      </trkpt>
      <trkpt lat="43.77428" lon="7.25807">
        <ele>787.8</ele>
        <time>2012-11-24T09:55:15Z</time>
      </trkpt>
      <trkpt lat="43.77437" lon="7.25816">
        <ele>790</ele>
        <time>2012-11-24T09:55:22Z</time>
      </trkpt>
      <trkpt lat="43.77442" lon="7.25822">
        <ele>790.9</ele>
        <time>2012-11-24T09:55:27Z</time>
      </trkpt>
      <trkpt lat="43.77448" lon="7.25834">
        <ele>791.7</ele>
        <time>2012-11-24T09:55:34Z</time>
      </trkpt>
      <trkpt lat="43.77444" lon="7.25853">
        <ele>793.3</ele>
        <time>2012-11-24T09:55:48Z</time>
      </trkpt>
      <trkpt lat="43.77445" lon="7.25855">
        <ele>793.1</ele>
        <time>2012-11-24T09:55:58Z</time>
      </trkpt>
      <trkpt lat="43.77444" lon="7.25834">
        <ele>791.8</ele>
        <time>2012-11-24T09:56:03Z</time>
      </trkpt>
      <trkpt lat="43.77456" lon="7.25826">
        <ele>793.1</ele>
        <time>2012-11-24T09:57:49Z</time>
      </trkpt>
      <trkpt lat="43.77468" lon="7.25821">
        <ele>793.6</ele>
        <time>2012-11-24T09:57:55Z</time>
      </trkpt>
      <trkpt lat="43.77494" lon="7.25808">
        <ele>793.2</ele>
        <time>2012-11-24T09:58:01Z</time>
      </trkpt>
      <trkpt lat="43.7752" lon="7.25805">
        <ele>792.6</ele>
        <time>2012-11-24T09:58:06Z</time>
      </trkpt>
      <trkpt lat="43.77542" lon="7.25789">
        <ele>791.3</ele>
        <time>2012-11-24T09:58:11Z</time>
      </trkpt>
      <trkpt lat="43.77567" lon="7.25797">
        <ele>789.8</ele>
        <time>2012-11-24T09:58:17Z</time>
      </trkpt>
      <trkpt lat="43.77579" lon="7.25821">
        <ele>789.2</ele>
        <time>2012-11-24T09:58:22Z</time>
      </trkpt>
      <trkpt lat="43.77581" lon="7.25857">
        <ele>788.5</ele>
        <time>2012-11-24T09:58:27Z</time>
      </trkpt>
      <trkpt lat="43.77579" lon="7.25904">
        <ele>788.2</ele>
        <time>2012-11-24T09:58:33Z</time>
      </trkpt>
      <trkpt lat="43.77569" lon="7.25937">
        <ele>786.8</ele>
        <time>2012-11-24T09:58:38Z</time>
      </trkpt>
      <trkpt lat="43.77547" lon="7.25979">
        <ele>785.2</ele>
        <time>2012-11-24T09:58:44Z</time>
      </trkpt>
      <trkpt lat="43.77526" lon="7.26019">
        <ele>784.2</ele>
        <time>2012-11-24T09:58:50Z</time>
      </trkpt>
      <trkpt lat="43.7753" lon="7.26031">
        <ele>781.8</ele>
        <time>2012-11-24T10:00:09Z</time>
      </trkpt>
      <trkpt lat="43.77542" lon="7.26017">
        <ele>780.5</ele>
        <time>2012-11-24T10:00:15Z</time>
      </trkpt>
      <trkpt lat="43.77574" lon="7.25994">
        <ele>778.2</ele>
        <time>2012-11-24T10:00:21Z</time>
      </trkpt>
      <trkpt lat="43.77606" lon="7.25956">
        <ele>775.6</ele>
        <time>2012-11-24T10:00:27Z</time>
      </trkpt>
      <trkpt lat="43.77635" lon="7.25914">
        <ele>773.5</ele>
        <time>2012-11-24T10:00:32Z</time>
      </trkpt>
      <trkpt lat="43.77669" lon="7.25864">
        <ele>771.4</ele>
        <time>2012-11-24T10:00:38Z</time>
      </trkpt>
      <trkpt lat="43.77703" lon="7.2582">
        <ele>768.4</ele>
        <time>2012-11-24T10:00:44Z</time>
      </trkpt>
      <trkpt lat="43.77716" lon="7.25796">
        <ele>760.5</ele>
        <time>2012-11-24T10:00:49Z</time>
      </trkpt>
      <trkpt lat="43.77729" lon="7.2577">
        <ele>754.2</ele>
        <time>2012-11-24T10:00:55Z</time>
      </trkpt>
      <trkpt lat="43.77726" lon="7.2575">
        <ele>745.2</ele>
        <time>2012-11-24T10:01:40Z</time>
      </trkpt>
      <trkpt lat="43.77729" lon="7.25726">
        <ele>743</ele>
        <time>2012-11-24T10:01:45Z</time>
      </trkpt>
      <trkpt lat="43.77742" lon="7.2568">
        <ele>740.2</ele>
        <time>2012-11-24T10:01:51Z</time>
      </trkpt>
      <trkpt lat="43.7776" lon="7.25641">
        <ele>735.9</ele>
        <time>2012-11-24T10:01:57Z</time>
      </trkpt>
      <trkpt lat="43.77774" lon="7.25622">
        <ele>733.5</ele>
        <time>2012-11-24T10:02:03Z</time>
      </trkpt>
      <trkpt lat="43.77792" lon="7.25625">
        <ele>717.8</ele>
        <time>2012-11-24T10:02:28Z</time>
      </trkpt>
      <trkpt lat="43.77798" lon="7.25614">
        <ele>716.6</ele>
        <time>2012-11-24T10:02:33Z</time>
      </trkpt>
      <trkpt lat="43.77805" lon="7.25601">
        <ele>713.1</ele>
        <time>2012-11-24T10:02:40Z</time>
      </trkpt>
      <trkpt lat="43.77811" lon="7.25613">
        <ele>710.1</ele>
        <time>2012-11-24T10:02:45Z</time>
      </trkpt>
      <trkpt lat="43.77812" lon="7.25619">
        <ele>706.1</ele>
        <time>2012-11-24T10:03:01Z</time>
      </trkpt>
      <trkpt lat="43.77819" lon="7.25614">
        <ele>703.9</ele>
        <time>2012-11-24T10:03:07Z</time>
      </trkpt>
      <trkpt lat="43.77828" lon="7.25617">
        <ele>701</ele>
        <time>2012-11-24T10:03:12Z</time>
      </trkpt>
      <trkpt lat="43.77845" lon="7.25623">
        <ele>698.5</ele>
        <time>2012-11-24T10:03:18Z</time>
      </trkpt>
      <trkpt lat="43.77861" lon="7.2562">
        <ele>694.8</ele>
        <time>2012-11-24T10:03:24Z</time>
      </trkpt>
      <trkpt lat="43.77873" lon="7.25623">
        <ele>691.8</ele>
        <time>2012-11-24T10:03:30Z</time>
      </trkpt>
      <trkpt lat="43.77867" lon="7.25606">
        <ele>688.7</ele>
        <time>2012-11-24T10:03:36Z</time>
      </trkpt>
      <trkpt lat="43.77869" lon="7.25585">
        <ele>686.5</ele>
        <time>2012-11-24T10:03:41Z</time>
      </trkpt>
      <trkpt lat="43.77885" lon="7.25586">
        <ele>680.6</ele>
        <time>2012-11-24T10:03:46Z</time>
      </trkpt>
      <trkpt lat="43.77889" lon="7.25585">
        <ele>676.6</ele>
        <time>2012-11-24T10:03:51Z</time>
      </trkpt>
      <trkpt lat="43.77881" lon="7.25578">
        <ele>672</ele>
        <time>2012-11-24T10:04:31Z</time>
      </trkpt>
      <trkpt lat="43.77881" lon="7.25568">
        <ele>671.5</ele>
        <time>2012-11-24T10:04:37Z</time>
      </trkpt>
      <trkpt lat="43.779" lon="7.25556">
        <ele>668.1</ele>
        <time>2012-11-24T10:04:43Z</time>
      </trkpt>
      <trkpt lat="43.77915" lon="7.25521">
        <ele>666.4</ele>
        <time>2012-11-24T10:04:49Z</time>
      </trkpt>
      <trkpt lat="43.77927" lon="7.25484">
        <ele>664</ele>
        <time>2012-11-24T10:04:55Z</time>
      </trkpt>
      <trkpt lat="43.7794" lon="7.25445">
        <ele>663.3</ele>
        <time>2012-11-24T10:05:01Z</time>
      </trkpt>
      <trkpt lat="43.77957" lon="7.25424">
        <ele>661.7</ele>
        <time>2012-11-24T10:05:07Z</time>
      </trkpt>
      <trkpt lat="43.77978" lon="7.25405">
        <ele>658.5</ele>
        <time>2012-11-24T10:05:12Z</time>
      </trkpt>
      <trkpt lat="43.77987" lon="7.25387">
        <ele>636.6</ele>
        <time>2012-11-24T10:07:49Z</time>
      </trkpt>
      <trkpt lat="43.77997" lon="7.25371">
        <ele>636.5</ele>
        <time>2012-11-24T10:07:55Z</time>
      </trkpt>
      <trkpt lat="43.7801" lon="7.25357">
        <ele>636</ele>
        <time>2012-11-24T10:08:01Z</time>
      </trkpt>
      <trkpt lat="43.7804" lon="7.25332">
        <ele>635</ele>
        <time>2012-11-24T10:08:07Z</time>
      </trkpt>
      <trkpt lat="43.78075" lon="7.25307">
        <ele>632.1</ele>
        <time>2012-11-24T10:08:13Z</time>
      </trkpt>
      <trkpt lat="43.7811" lon="7.25277">
        <ele>628</ele>
        <time>2012-11-24T10:08:19Z</time>
      </trkpt>
      <trkpt lat="43.78137" lon="7.25258">
        <ele>624.4</ele>
        <time>2012-11-24T10:08:24Z</time>
      </trkpt>
      <trkpt lat="43.78154" lon="7.25237">
        <ele>615.8</ele>
        <time>2012-11-24T10:08:30Z</time>
      </trkpt>
      <trkpt lat="43.78163" lon="7.25218">
        <ele>615.4</ele>
        <time>2012-11-24T10:08:35Z</time>
      </trkpt>
      <trkpt lat="43.78186" lon="7.25184">
        <ele>609</ele>
        <time>2012-11-24T10:08:41Z</time>
      </trkpt>
      <trkpt lat="43.78214" lon="7.25137">
        <ele>603.3</ele>
        <time>2012-11-24T10:08:47Z</time>
      </trkpt>
      <trkpt lat="43.78225" lon="7.25107">
        <ele>600.3</ele>
        <time>2012-11-24T10:08:53Z</time>
      </trkpt>
      <trkpt lat="43.78223" lon="7.25054">
        <ele>595.7</ele>
        <time>2012-11-24T10:09:35Z</time>
      </trkpt>
      <trkpt lat="43.78216" lon="7.25001">
        <ele>600.2</ele>
        <time>2012-11-24T10:10:15Z</time>
      </trkpt>
      <trkpt lat="43.78204" lon="7.24951">
        <ele>608.9</ele>
        <time>2012-11-24T10:10:57Z</time>
      </trkpt>
      <trkpt lat="43.7818" lon="7.24915">
        <ele>617.7</ele>
        <time>2012-11-24T10:12:28Z</time>
      </trkpt>
      <trkpt lat="43.78171" lon="7.24908">
        <ele>618.2</ele>
        <time>2012-11-24T10:12:33Z</time>
      </trkpt>
      <trkpt lat="43.78162" lon="7.24901">
        <ele>619.8</ele>
        <time>2012-11-24T10:12:39Z</time>
      </trkpt>
      <trkpt lat="43.78132" lon="7.24884">
        <ele>622.2</ele>
        <time>2012-11-24T10:13:06Z</time>
      </trkpt>
      <trkpt lat="43.78103" lon="7.24879">
        <ele>627.8</ele>
        <time>2012-11-24T10:13:31Z</time>
      </trkpt>
      <trkpt lat="43.78063" lon="7.2488">
        <ele>637.4</ele>
        <time>2012-11-24T10:14:38Z</time>
      </trkpt>
      <trkpt lat="43.78026" lon="7.2488">
        <ele>647.6</ele>
        <time>2012-11-24T10:15:37Z</time>
      </trkpt>
      <trkpt lat="43.77999" lon="7.24874">
        <ele>652.3</ele>
        <time>2012-11-24T10:16:09Z</time>
      </trkpt>
      <trkpt lat="43.77992" lon="7.24873">
        <ele>652.8</ele>
        <time>2012-11-24T10:16:15Z</time>
      </trkpt>
      <trkpt lat="43.77979" lon="7.24821">
        <ele>657.2</ele>
        <time>2012-11-24T10:16:56Z</time>
      </trkpt>
      <trkpt lat="43.77944" lon="7.24818">
        <ele>667.9</ele>
        <time>2012-11-24T10:18:29Z</time>
      </trkpt>
      <trkpt lat="43.7791" lon="7.24803">
        <ele>679</ele>
        <time>2012-11-24T10:19:36Z</time>
      </trkpt>
      <trkpt lat="43.77904" lon="7.24807">
        <ele>680.3</ele>
        <time>2012-11-24T10:19:58Z</time>
      </trkpt>
      <trkpt lat="43.77915" lon="7.248">
        <ele>680.2</ele>
        <time>2012-11-24T10:20:03Z</time>
      </trkpt>
      <trkpt lat="43.77926" lon="7.24803">
        <ele>680.4</ele>
        <time>2012-11-24T10:20:08Z</time>
      </trkpt>
      <trkpt lat="43.77936" lon="7.24809">
        <ele>679</ele>
        <time>2012-11-24T10:20:14Z</time>
      </trkpt>
      <trkpt lat="43.77943" lon="7.24822">
        <ele>678.6</ele>
        <time>2012-11-24T10:20:20Z</time>
      </trkpt>
      <trkpt lat="43.77939" lon="7.24821">
        <ele>673.5</ele>
        <time>2012-11-24T10:20:47Z</time>
      </trkpt>
      <trkpt lat="43.77901" lon="7.24811">
        <ele>680.3</ele>
        <time>2012-11-24T10:22:01Z</time>
      </trkpt>
      <trkpt lat="43.77868" lon="7.24837">
        <ele>689.7</ele>
        <time>2012-11-24T10:22:47Z</time>
      </trkpt>
      <trkpt lat="43.77836" lon="7.24863">
        <ele>699.4</ele>
        <time>2012-11-24T10:23:35Z</time>
      </trkpt>
      <trkpt lat="43.77827" lon="7.24867">
        <ele>700.7</ele>
        <time>2012-11-24T10:23:44Z</time>
      </trkpt>
      <trkpt lat="43.77812" lon="7.24873">
        <ele>704.2</ele>
        <time>2012-11-24T10:24:02Z</time>
      </trkpt>
      <trkpt lat="43.77794" lon="7.24874">
        <ele>713</ele>
        <time>2012-11-24T10:26:16Z</time>
      </trkpt>
      <trkpt lat="43.77796" lon="7.24874">
        <ele>714</ele>
        <time>2012-11-24T10:26:54Z</time>
      </trkpt>
      <trkpt lat="43.77807" lon="7.24868">
        <ele>714.3</ele>
        <time>2012-11-24T10:27:01Z</time>
      </trkpt>
      <trkpt lat="43.77802" lon="7.24866">
        <ele>714.6</ele>
        <time>2012-11-24T10:30:06Z</time>
      </trkpt>
      <trkpt lat="43.77782" lon="7.24886">
        <ele>713</ele>
        <time>2012-11-24T10:31:38Z</time>
      </trkpt>
      <trkpt lat="43.77775" lon="7.24894">
        <ele>713.4</ele>
        <time>2012-11-24T10:31:44Z</time>
      </trkpt>
      <trkpt lat="43.77763" lon="7.24897">
        <ele>714.2</ele>
        <time>2012-11-24T10:31:51Z</time>
      </trkpt>
      <trkpt lat="43.77753" lon="7.24899">
        <ele>714.8</ele>
        <time>2012-11-24T10:31:56Z</time>
      </trkpt>
      <trkpt lat="43.77733" lon="7.24905">
        <ele>714.5</ele>
        <time>2012-11-24T10:32:02Z</time>
      </trkpt>
      <trkpt lat="43.77713" lon="7.24916">
        <ele>713.9</ele>
        <time>2012-11-24T10:32:08Z</time>
      </trkpt>
      <trkpt lat="43.77696" lon="7.2492">
        <ele>714.1</ele>
        <time>2012-11-24T10:32:13Z</time>
      </trkpt>
      <trkpt lat="43.77678" lon="7.2491">
        <ele>715.1</ele>
        <time>2012-11-24T10:32:18Z</time>
      </trkpt>
      <trkpt lat="43.77664" lon="7.24905">
        <ele>716.5</ele>
        <time>2012-11-24T10:32:24Z</time>
      </trkpt>
      <trkpt lat="43.77655" lon="7.24906">
        <ele>717.7</ele>
        <time>2012-11-24T10:32:30Z</time>
      </trkpt>
      <trkpt lat="43.77646" lon="7.24908">
        <ele>719.2</ele>
        <time>2012-11-24T10:32:36Z</time>
      </trkpt>
      <trkpt lat="43.77635" lon="7.24908">
        <ele>720.5</ele>
        <time>2012-11-24T10:32:42Z</time>
      </trkpt>
      <trkpt lat="43.77626" lon="7.24909">
        <ele>721.4</ele>
        <time>2012-11-24T10:32:47Z</time>
      </trkpt>
      <trkpt lat="43.77613" lon="7.24908">
        <ele>722.7</ele>
        <time>2012-11-24T10:32:53Z</time>
      </trkpt>
      <trkpt lat="43.77602" lon="7.24908">
        <ele>723.1</ele>
        <time>2012-11-24T10:32:59Z</time>
      </trkpt>
      <trkpt lat="43.77596" lon="7.24912">
        <ele>723.5</ele>
        <time>2012-11-24T10:33:07Z</time>
      </trkpt>
      <trkpt lat="43.77588" lon="7.24915">
        <ele>724.4</ele>
        <time>2012-11-24T10:34:00Z</time>
      </trkpt>
      <trkpt lat="43.77574" lon="7.24918">
        <ele>723.9</ele>
        <time>2012-11-24T10:34:05Z</time>
      </trkpt>
      <trkpt lat="43.7756" lon="7.24923">
        <ele>724</ele>
        <time>2012-11-24T10:34:11Z</time>
      </trkpt>
      <trkpt lat="43.77546" lon="7.24925">
        <ele>724.8</ele>
        <time>2012-11-24T10:34:17Z</time>
      </trkpt>
      <trkpt lat="43.77532" lon="7.2493">
        <ele>724.4</ele>
        <time>2012-11-24T10:34:23Z</time>
      </trkpt>
      <trkpt lat="43.77518" lon="7.24934">
        <ele>724.5</ele>
        <time>2012-11-24T10:34:29Z</time>
      </trkpt>
      <trkpt lat="43.77502" lon="7.24936">
        <ele>723.8</ele>
        <time>2012-11-24T10:34:34Z</time>
      </trkpt>
      <trkpt lat="43.77488" lon="7.24938">
        <ele>723.5</ele>
        <time>2012-11-24T10:34:39Z</time>
      </trkpt>
      <trkpt lat="43.77473" lon="7.24942">
        <ele>723.1</ele>
        <time>2012-11-24T10:34:45Z</time>
      </trkpt>
      <trkpt lat="43.77461" lon="7.24943">
        <ele>723.7</ele>
        <time>2012-11-24T10:34:50Z</time>
      </trkpt>
      <trkpt lat="43.77446" lon="7.24939">
        <ele>724.7</ele>
        <time>2012-11-24T10:34:56Z</time>
      </trkpt>
      <trkpt lat="43.77431" lon="7.24943">
        <ele>725.7</ele>
        <time>2012-11-24T10:35:02Z</time>
      </trkpt>
      <trkpt lat="43.77417" lon="7.24945">
        <ele>726.8</ele>
        <time>2012-11-24T10:35:08Z</time>
      </trkpt>
      <trkpt lat="43.77404" lon="7.24946">
        <ele>729.6</ele>
        <time>2012-11-24T10:35:22Z</time>
      </trkpt>
      <trkpt lat="43.7739" lon="7.24945">
        <ele>729.9</ele>
        <time>2012-11-24T10:35:28Z</time>
      </trkpt>
      <trkpt lat="43.77382" lon="7.24946">
        <ele>730.6</ele>
        <time>2012-11-24T10:35:34Z</time>
      </trkpt>
      <trkpt lat="43.77354" lon="7.24955">
        <ele>735</ele>
        <time>2012-11-24T10:36:06Z</time>
      </trkpt>
      <trkpt lat="43.77347" lon="7.24958">
        <ele>736.2</ele>
        <time>2012-11-24T10:36:12Z</time>
      </trkpt>
      <trkpt lat="43.77332" lon="7.2496">
        <ele>738.7</ele>
        <time>2012-11-24T10:36:27Z</time>
      </trkpt>
      <trkpt lat="43.77322" lon="7.2496">
        <ele>738.7</ele>
        <time>2012-11-24T10:36:34Z</time>
      </trkpt>
      <trkpt lat="43.77307" lon="7.24965">
        <ele>741.7</ele>
        <time>2012-11-24T10:36:49Z</time>
      </trkpt>
      <trkpt lat="43.77297" lon="7.24966">
        <ele>743.1</ele>
        <time>2012-11-24T10:37:00Z</time>
      </trkpt>
      <trkpt lat="43.77284" lon="7.24966">
        <ele>743.7</ele>
        <time>2012-11-24T10:37:06Z</time>
      </trkpt>
      <trkpt lat="43.77269" lon="7.24968">
        <ele>744.2</ele>
        <time>2012-11-24T10:37:12Z</time>
      </trkpt>
      <trkpt lat="43.77255" lon="7.24969">
        <ele>744.5</ele>
        <time>2012-11-24T10:37:18Z</time>
      </trkpt>
      <trkpt lat="43.77244" lon="7.24973">
        <ele>744.8</ele>
        <time>2012-11-24T10:37:23Z</time>
      </trkpt>
      <trkpt lat="43.7723" lon="7.24978">
        <ele>744.7</ele>
        <time>2012-11-24T10:37:28Z</time>
      </trkpt>
      <trkpt lat="43.77215" lon="7.24982">
        <ele>745.3</ele>
        <time>2012-11-24T10:37:34Z</time>
      </trkpt>
      <trkpt lat="43.77199" lon="7.24984">
        <ele>746</ele>
        <time>2012-11-24T10:37:39Z</time>
      </trkpt>
      <trkpt lat="43.77178" lon="7.24984">
        <ele>746.5</ele>
        <time>2012-11-24T10:37:44Z</time>
      </trkpt>
      <trkpt lat="43.77159" lon="7.24987">
        <ele>747.9</ele>
        <time>2012-11-24T10:37:50Z</time>
      </trkpt>
      <trkpt lat="43.77142" lon="7.24985">
        <ele>748.3</ele>
        <time>2012-11-24T10:37:56Z</time>
      </trkpt>
      <trkpt lat="43.77121" lon="7.24986">
        <ele>747.7</ele>
        <time>2012-11-24T10:38:02Z</time>
      </trkpt>
      <trkpt lat="43.77104" lon="7.24988">
        <ele>748</ele>
        <time>2012-11-24T10:38:07Z</time>
      </trkpt>
      <trkpt lat="43.77088" lon="7.2499">
        <ele>748.1</ele>
        <time>2012-11-24T10:38:12Z</time>
      </trkpt>
      <trkpt lat="43.77069" lon="7.24981">
        <ele>748.2</ele>
        <time>2012-11-24T10:38:18Z</time>
      </trkpt>
      <trkpt lat="43.77052" lon="7.2497">
        <ele>748.3</ele>
        <time>2012-11-24T10:38:24Z</time>
      </trkpt>
      <trkpt lat="43.77036" lon="7.24964">
        <ele>748.8</ele>
        <time>2012-11-24T10:38:30Z</time>
      </trkpt>
      <trkpt lat="43.77026" lon="7.2497">
        <ele>748.2</ele>
        <time>2012-11-24T10:38:35Z</time>
      </trkpt>
      <trkpt lat="43.77017" lon="7.24978">
        <ele>747.2</ele>
        <time>2012-11-24T10:38:41Z</time>
      </trkpt>
      <trkpt lat="43.77002" lon="7.24984">
        <ele>747</ele>
        <time>2012-11-24T10:38:47Z</time>
      </trkpt>
      <trkpt lat="43.76983" lon="7.24992">
        <ele>746.7</ele>
        <time>2012-11-24T10:38:53Z</time>
      </trkpt>
      <trkpt lat="43.76958" lon="7.24998">
        <ele>746.2</ele>
        <time>2012-11-24T10:38:59Z</time>
      </trkpt>
      <trkpt lat="43.76944" lon="7.25003">
        <ele>745.3</ele>
        <time>2012-11-24T10:39:04Z</time>
      </trkpt>
      <trkpt lat="43.76923" lon="7.25012">
        <ele>743.3</ele>
        <time>2012-11-24T10:39:10Z</time>
      </trkpt>
      <trkpt lat="43.76892" lon="7.25027">
        <ele>741.2</ele>
        <time>2012-11-24T10:39:16Z</time>
      </trkpt>
      <trkpt lat="43.76889" lon="7.25036">
        <ele>739.2</ele>
        <time>2012-11-24T10:39:21Z</time>
      </trkpt>
      <trkpt lat="43.76895" lon="7.2504">
        <ele>738.1</ele>
        <time>2012-11-24T10:40:30Z</time>
      </trkpt>
      <trkpt lat="43.76898" lon="7.25055">
        <ele>737.3</ele>
        <time>2012-11-24T10:40:36Z</time>
      </trkpt>
      <trkpt lat="43.769" lon="7.25069">
        <ele>736.2</ele>
        <time>2012-11-24T10:40:41Z</time>
      </trkpt>
      <trkpt lat="43.769" lon="7.25084">
        <ele>736.7</ele>
        <time>2012-11-24T10:40:47Z</time>
      </trkpt>
      <trkpt lat="43.76901" lon="7.25099">
        <ele>736.9</ele>
        <time>2012-11-24T10:40:53Z</time>
      </trkpt>
      <trkpt lat="43.76901" lon="7.25113">
        <ele>736.7</ele>
        <time>2012-11-24T10:40:59Z</time>
      </trkpt>
      <trkpt lat="43.769" lon="7.2513">
        <ele>737.9</ele>
        <time>2012-11-24T10:41:06Z</time>
      </trkpt>
      <trkpt lat="43.76898" lon="7.25147">
        <ele>739.3</ele>
        <time>2012-11-24T10:41:13Z</time>
      </trkpt>
      <trkpt lat="43.76896" lon="7.25161">
        <ele>740.5</ele>
        <time>2012-11-24T10:41:19Z</time>
      </trkpt>
      <trkpt lat="43.76894" lon="7.25178">
        <ele>741.3</ele>
        <time>2012-11-24T10:41:26Z</time>
      </trkpt>
      <trkpt lat="43.76894" lon="7.25191">
        <ele>741.9</ele>
        <time>2012-11-24T10:41:32Z</time>
      </trkpt>
      <trkpt lat="43.76901" lon="7.25198">
        <ele>743.7</ele>
        <time>2012-11-24T10:41:46Z</time>
      </trkpt>
      <trkpt lat="43.76904" lon="7.25188">
        <ele>745</ele>
        <time>2012-11-24T10:41:51Z</time>
      </trkpt>
      <trkpt lat="43.76907" lon="7.25173">
        <ele>746.2</ele>
        <time>2012-11-24T10:41:58Z</time>
      </trkpt>
      <trkpt lat="43.76911" lon="7.25163">
        <ele>747.4</ele>
        <time>2012-11-24T10:42:04Z</time>
      </trkpt>
      <trkpt lat="43.76933" lon="7.25127">
        <ele>751.1</ele>
        <time>2012-11-24T10:42:30Z</time>
      </trkpt>
      <trkpt lat="43.7694" lon="7.2512">
        <ele>751.3</ele>
        <time>2012-11-24T10:42:36Z</time>
      </trkpt>
      <trkpt lat="43.76953" lon="7.25107">
        <ele>753.9</ele>
        <time>2012-11-24T10:42:48Z</time>
      </trkpt>
      <trkpt lat="43.7696" lon="7.25098">
        <ele>755.3</ele>
        <time>2012-11-24T10:42:54Z</time>
      </trkpt>
      <trkpt lat="43.76967" lon="7.25088">
        <ele>757.4</ele>
        <time>2012-11-24T10:43:00Z</time>
      </trkpt>
      <trkpt lat="43.76974" lon="7.25082">
        <ele>757.5</ele>
        <time>2012-11-24T10:43:06Z</time>
      </trkpt>
      <trkpt lat="43.76977" lon="7.2509">
        <ele>756.7</ele>
        <time>2012-11-24T10:43:12Z</time>
      </trkpt>
      <trkpt lat="43.76972" lon="7.251">
        <ele>758</ele>
        <time>2012-11-24T10:43:18Z</time>
      </trkpt>
      <trkpt lat="43.76965" lon="7.25114">
        <ele>759.1</ele>
        <time>2012-11-24T10:43:25Z</time>
      </trkpt>
      <trkpt lat="43.76959" lon="7.25127">
        <ele>759.9</ele>
        <time>2012-11-24T10:43:31Z</time>
      </trkpt>
      <trkpt lat="43.76951" lon="7.25141">
        <ele>760.3</ele>
        <time>2012-11-24T10:43:37Z</time>
      </trkpt>
      <trkpt lat="43.76946" lon="7.25154">
        <ele>760.9</ele>
        <time>2012-11-24T10:43:42Z</time>
      </trkpt>
      <trkpt lat="43.76938" lon="7.25169">
        <ele>761.6</ele>
        <time>2012-11-24T10:43:48Z</time>
      </trkpt>
      <trkpt lat="43.76934" lon="7.25185">
        <ele>762.4</ele>
        <time>2012-11-24T10:43:54Z</time>
      </trkpt>
      <trkpt lat="43.76931" lon="7.252">
        <ele>764</ele>
        <time>2012-11-24T10:44:00Z</time>
      </trkpt>
      <trkpt lat="43.76925" lon="7.25211">
        <ele>765.1</ele>
        <time>2012-11-24T10:44:06Z</time>
      </trkpt>
      <trkpt lat="43.76926" lon="7.25223">
        <ele>765.3</ele>
        <time>2012-11-24T10:44:11Z</time>
      </trkpt>
      <trkpt lat="43.76923" lon="7.25234">
        <ele>765.2</ele>
        <time>2012-11-24T10:44:16Z</time>
      </trkpt>
      <trkpt lat="43.7692" lon="7.25246">
        <ele>765.9</ele>
        <time>2012-11-24T10:44:22Z</time>
      </trkpt>
      <trkpt lat="43.76917" lon="7.25256">
        <ele>767.1</ele>
        <time>2012-11-24T10:44:27Z</time>
      </trkpt>
      <trkpt lat="43.76916" lon="7.25266">
        <ele>768</ele>
        <time>2012-11-24T10:44:32Z</time>
      </trkpt>
      <trkpt lat="43.76917" lon="7.2528">
        <ele>769.2</ele>
        <time>2012-11-24T10:44:39Z</time>
      </trkpt>
      <trkpt lat="43.76915" lon="7.25291">
        <ele>770.4</ele>
        <time>2012-11-24T10:44:46Z</time>
      </trkpt>
      <trkpt lat="43.76892" lon="7.25335">
        <ele>774.4</ele>
        <time>2012-11-24T10:45:19Z</time>
      </trkpt>
      <trkpt lat="43.76886" lon="7.25342">
        <ele>776</ele>
        <time>2012-11-24T10:45:24Z</time>
      </trkpt>
      <trkpt lat="43.76875" lon="7.25381">
        <ele>780.7</ele>
        <time>2012-11-24T10:45:50Z</time>
      </trkpt>
      <trkpt lat="43.7687" lon="7.25394">
        <ele>782.6</ele>
        <time>2012-11-24T10:46:55Z</time>
      </trkpt>
      <trkpt lat="43.76868" lon="7.25408">
        <ele>783.7</ele>
        <time>2012-11-24T10:47:04Z</time>
      </trkpt>
      <trkpt lat="43.76866" lon="7.25418">
        <ele>784.9</ele>
        <time>2012-11-24T10:47:10Z</time>
      </trkpt>
      <trkpt lat="43.76861" lon="7.25435">
        <ele>787.1</ele>
        <time>2012-11-24T10:47:20Z</time>
      </trkpt>
      <trkpt lat="43.76847" lon="7.25491">
        <ele>790.5</ele>
        <time>2012-11-24T10:47:58Z</time>
      </trkpt>
      <trkpt lat="43.76846" lon="7.25502">
        <ele>790.5</ele>
        <time>2012-11-24T10:48:04Z</time>
      </trkpt>
      <trkpt lat="43.76843" lon="7.25511">
        <ele>790.7</ele>
        <time>2012-11-24T10:48:10Z</time>
      </trkpt>
      <trkpt lat="43.76836" lon="7.25531">
        <ele>792.3</ele>
        <time>2012-11-24T10:48:25Z</time>
      </trkpt>
      <trkpt lat="43.76832" lon="7.25541">
        <ele>793.8</ele>
        <time>2012-11-24T10:48:31Z</time>
      </trkpt>
      <trkpt lat="43.7683" lon="7.25552">
        <ele>795.4</ele>
        <time>2012-11-24T10:48:37Z</time>
      </trkpt>
      <trkpt lat="43.7683" lon="7.25565">
        <ele>795.6</ele>
        <time>2012-11-24T10:48:46Z</time>
      </trkpt>
      <trkpt lat="43.7683" lon="7.25576">
        <ele>796.6</ele>
        <time>2012-11-24T10:48:52Z</time>
      </trkpt>
      <trkpt lat="43.76833" lon="7.25586">
        <ele>797.7</ele>
        <time>2012-11-24T10:48:58Z</time>
      </trkpt>
      <trkpt lat="43.7684" lon="7.25618">
        <ele>802.3</ele>
        <time>2012-11-24T10:49:21Z</time>
      </trkpt>
      <trkpt lat="43.76843" lon="7.25628">
        <ele>801.7</ele>
        <time>2012-11-24T10:49:27Z</time>
      </trkpt>
      <trkpt lat="43.76847" lon="7.25616">
        <ele>809.4</ele>
        <time>2012-11-24T10:50:00Z</time>
      </trkpt>
      <trkpt lat="43.76844" lon="7.256">
        <ele>811.1</ele>
        <time>2012-11-24T10:50:08Z</time>
      </trkpt>
      <trkpt lat="43.76852" lon="7.2556">
        <ele>813.6</ele>
        <time>2012-11-24T10:50:31Z</time>
      </trkpt>
      <trkpt lat="43.76863" lon="7.25531">
        <ele>817.8</ele>
        <time>2012-11-24T10:50:49Z</time>
      </trkpt>
      <trkpt lat="43.76863" lon="7.25542">
        <ele>817.9</ele>
        <time>2012-11-24T10:50:55Z</time>
      </trkpt>
      <trkpt lat="43.76861" lon="7.25558">
        <ele>817.9</ele>
        <time>2012-11-24T10:51:02Z</time>
      </trkpt>
      <trkpt lat="43.76859" lon="7.2557">
        <ele>818</ele>
        <time>2012-11-24T10:51:08Z</time>
      </trkpt>
      <trkpt lat="43.7686" lon="7.25581">
        <ele>818.4</ele>
        <time>2012-11-24T10:51:14Z</time>
      </trkpt>
      <trkpt lat="43.76862" lon="7.25593">
        <ele>818.8</ele>
        <time>2012-11-24T10:51:20Z</time>
      </trkpt>
      <trkpt lat="43.76865" lon="7.25605">
        <ele>820.1</ele>
        <time>2012-11-24T10:51:26Z</time>
      </trkpt>
      <trkpt lat="43.76872" lon="7.25615">
        <ele>820.6</ele>
        <time>2012-11-24T10:51:32Z</time>
      </trkpt>
      <trkpt lat="43.7688" lon="7.25628">
        <ele>821.3</ele>
        <time>2012-11-24T10:51:38Z</time>
      </trkpt>
      <trkpt lat="43.76891" lon="7.25638">
        <ele>821.6</ele>
        <time>2012-11-24T10:51:44Z</time>
      </trkpt>
      <trkpt lat="43.76901" lon="7.25654">
        <ele>822</ele>
        <time>2012-11-24T10:51:50Z</time>
      </trkpt>
      <trkpt lat="43.76912" lon="7.25669">
        <ele>823.3</ele>
        <time>2012-11-24T10:51:56Z</time>
      </trkpt>
      <trkpt lat="43.76922" lon="7.25684">
        <ele>824.7</ele>
        <time>2012-11-24T10:52:02Z</time>
      </trkpt>
      <trkpt lat="43.76929" lon="7.25699">
        <ele>826.5</ele>
        <time>2012-11-24T10:52:08Z</time>
      </trkpt>
      <trkpt lat="43.76937" lon="7.25693">
        <ele>829.1</ele>
        <time>2012-11-24T10:52:15Z</time>
      </trkpt>
      <trkpt lat="43.76931" lon="7.25678">
        <ele>830.6</ele>
        <time>2012-11-24T10:52:24Z</time>
      </trkpt>
      <trkpt lat="43.76927" lon="7.25665">
        <ele>833.6</ele>
        <time>2012-11-24T10:52:31Z</time>
      </trkpt>
      <trkpt lat="43.76923" lon="7.25654">
        <ele>835.5</ele>
        <time>2012-11-24T10:52:37Z</time>
      </trkpt>
      <trkpt lat="43.76918" lon="7.25643">
        <ele>837.6</ele>
        <time>2012-11-24T10:52:43Z</time>
      </trkpt>
      <trkpt lat="43.76914" lon="7.2563">
        <ele>838.9</ele>
        <time>2012-11-24T10:52:49Z</time>
      </trkpt>
      <trkpt lat="43.76909" lon="7.25615">
        <ele>842.4</ele>
        <time>2012-11-24T10:52:56Z</time>
      </trkpt>
      <trkpt lat="43.76905" lon="7.25603">
        <ele>844.1</ele>
        <time>2012-11-24T10:53:02Z</time>
      </trkpt>
      <trkpt lat="43.76901" lon="7.25588">
        <ele>845.6</ele>
        <time>2012-11-24T10:53:08Z</time>
      </trkpt>
      <trkpt lat="43.76897" lon="7.25575">
        <ele>847</ele>
        <time>2012-11-24T10:53:14Z</time>
      </trkpt>
      <trkpt lat="43.76905" lon="7.25574">
        <ele>846.8</ele>
        <time>2012-11-24T10:53:20Z</time>
      </trkpt>
      <trkpt lat="43.76911" lon="7.25586">
        <ele>846.5</ele>
        <time>2012-11-24T10:53:26Z</time>
      </trkpt>
      <trkpt lat="43.76915" lon="7.25597">
        <ele>846.5</ele>
        <time>2012-11-24T10:53:32Z</time>
      </trkpt>
      <trkpt lat="43.76925" lon="7.25611">
        <ele>847.2</ele>
        <time>2012-11-24T10:53:42Z</time>
      </trkpt>
      <trkpt lat="43.7693" lon="7.2562">
        <ele>847.9</ele>
        <time>2012-11-24T10:53:48Z</time>
      </trkpt>
      <trkpt lat="43.76936" lon="7.25626">
        <ele>847.8</ele>
        <time>2012-11-24T10:53:53Z</time>
      </trkpt>
      <trkpt lat="43.76941" lon="7.25635">
        <ele>847.7</ele>
        <time>2012-11-24T10:53:58Z</time>
      </trkpt>
      <trkpt lat="43.76948" lon="7.25642">
        <ele>849.2</ele>
        <time>2012-11-24T10:54:04Z</time>
      </trkpt>
      <trkpt lat="43.76955" lon="7.2565">
        <ele>849.7</ele>
        <time>2012-11-24T10:54:10Z</time>
      </trkpt>
      <trkpt lat="43.76963" lon="7.2566">
        <ele>849.8</ele>
        <time>2012-11-24T10:54:17Z</time>
      </trkpt>
      <trkpt lat="43.76971" lon="7.25669">
        <ele>851.6</ele>
        <time>2012-11-24T10:54:23Z</time>
      </trkpt>
      <trkpt lat="43.76976" lon="7.25664">
        <ele>854.1</ele>
        <time>2012-11-24T10:54:28Z</time>
      </trkpt>
      <trkpt lat="43.76972" lon="7.25648">
        <ele>856.4</ele>
        <time>2012-11-24T10:54:34Z</time>
      </trkpt>
      <trkpt lat="43.76965" lon="7.25639">
        <ele>857.1</ele>
        <time>2012-11-24T10:54:40Z</time>
      </trkpt>
      <trkpt lat="43.76956" lon="7.2563">
        <ele>857.9</ele>
        <time>2012-11-24T10:54:46Z</time>
      </trkpt>
      <trkpt lat="43.76951" lon="7.25618">
        <ele>858.3</ele>
        <time>2012-11-24T10:54:51Z</time>
      </trkpt>
      <trkpt lat="43.76946" lon="7.25603">
        <ele>860.4</ele>
        <time>2012-11-24T10:54:58Z</time>
      </trkpt>
      <trkpt lat="43.7694" lon="7.2559">
        <ele>860.2</ele>
        <time>2012-11-24T10:55:04Z</time>
      </trkpt>
      <trkpt lat="43.76935" lon="7.25576">
        <ele>861.1</ele>
        <time>2012-11-24T10:55:10Z</time>
      </trkpt>
      <trkpt lat="43.76933" lon="7.25562">
        <ele>863.1</ele>
        <time>2012-11-24T10:55:16Z</time>
      </trkpt>
      <trkpt lat="43.7694" lon="7.25564">
        <ele>864.4</ele>
        <time>2012-11-24T10:55:22Z</time>
      </trkpt>
      <trkpt lat="43.76946" lon="7.25576">
        <ele>865.5</ele>
        <time>2012-11-24T10:55:28Z</time>
      </trkpt>
      <trkpt lat="43.76951" lon="7.25585">
        <ele>865.2</ele>
        <time>2012-11-24T10:55:34Z</time>
      </trkpt>
      <trkpt lat="43.7697" lon="7.25608">
        <ele>865.8</ele>
        <time>2012-11-24T10:55:51Z</time>
      </trkpt>
      <trkpt lat="43.76976" lon="7.25617">
        <ele>866.9</ele>
        <time>2012-11-24T10:55:57Z</time>
      </trkpt>
      <trkpt lat="43.76982" lon="7.25626">
        <ele>867.1</ele>
        <time>2012-11-24T10:56:03Z</time>
      </trkpt>
      <trkpt lat="43.76995" lon="7.25636">
        <ele>868</ele>
        <time>2012-11-24T10:56:16Z</time>
      </trkpt>
      <trkpt lat="43.77003" lon="7.25639">
        <ele>868.2</ele>
        <time>2012-11-24T10:56:22Z</time>
      </trkpt>
      <trkpt lat="43.77001" lon="7.2564">
        <ele>873.7</ele>
        <time>2012-11-24T10:56:48Z</time>
      </trkpt>
      <trkpt lat="43.76973" lon="7.2559">
        <ele>880.9</ele>
        <time>2012-11-24T10:58:23Z</time>
      </trkpt>
      <trkpt lat="43.76964" lon="7.25535">
        <ele>884.6</ele>
        <time>2012-11-24T10:58:53Z</time>
      </trkpt>
      <trkpt lat="43.76966" lon="7.25499">
        <ele>884.1</ele>
        <time>2012-11-24T10:59:14Z</time>
      </trkpt>
      <trkpt lat="43.76969" lon="7.25488">
        <ele>885</ele>
        <time>2012-11-24T10:59:20Z</time>
      </trkpt>
      <trkpt lat="43.76974" lon="7.25477">
        <ele>885</ele>
        <time>2012-11-24T10:59:26Z</time>
      </trkpt>
      <trkpt lat="43.76979" lon="7.25462">
        <ele>885.7</ele>
        <time>2012-11-24T10:59:33Z</time>
      </trkpt>
      <trkpt lat="43.76981" lon="7.2545">
        <ele>885.8</ele>
        <time>2012-11-24T10:59:39Z</time>
      </trkpt>
      <trkpt lat="43.76986" lon="7.25439">
        <ele>886.6</ele>
        <time>2012-11-24T10:59:46Z</time>
      </trkpt>
      <trkpt lat="43.76996" lon="7.25422">
        <ele>886.8</ele>
        <time>2012-11-24T10:59:59Z</time>
      </trkpt>
      <trkpt lat="43.77002" lon="7.25412">
        <ele>886.8</ele>
        <time>2012-11-24T11:00:05Z</time>
      </trkpt>
      <trkpt lat="43.77005" lon="7.25401">
        <ele>887.5</ele>
        <time>2012-11-24T11:00:11Z</time>
      </trkpt>
      <trkpt lat="43.77016" lon="7.25404">
        <ele>892.5</ele>
        <time>2012-11-24T11:00:55Z</time>
      </trkpt>
      <trkpt lat="43.77013" lon="7.25414">
        <ele>893.3</ele>
        <time>2012-11-24T11:01:01Z</time>
      </trkpt>
      <trkpt lat="43.77004" lon="7.2544">
        <ele>895</ele>
        <time>2012-11-24T11:01:15Z</time>
      </trkpt>
      <trkpt lat="43.76997" lon="7.25449">
        <ele>895.3</ele>
        <time>2012-11-24T11:01:20Z</time>
      </trkpt>
      <trkpt lat="43.76992" lon="7.25469">
        <ele>896.3</ele>
        <time>2012-11-24T11:01:26Z</time>
      </trkpt>
      <trkpt lat="43.76992" lon="7.25495">
        <ele>896.1</ele>
        <time>2012-11-24T11:01:33Z</time>
      </trkpt>
      <trkpt lat="43.76999" lon="7.25469">
        <ele>902.1</ele>
        <time>2012-11-24T11:02:08Z</time>
      </trkpt>
      <trkpt lat="43.76997" lon="7.25501">
        <ele>901</ele>
        <time>2012-11-24T11:02:14Z</time>
      </trkpt>
      <trkpt lat="43.76993" lon="7.25495">
        <ele>901.6</ele>
        <time>2012-11-24T11:02:53Z</time>
      </trkpt>
      <trkpt lat="43.76992" lon="7.25472">
        <ele>901.5</ele>
        <time>2012-11-24T11:02:58Z</time>
      </trkpt>
      <trkpt lat="43.77001" lon="7.25437">
        <ele>900.9</ele>
        <time>2012-11-24T11:03:04Z</time>
      </trkpt>
      <trkpt lat="43.77009" lon="7.25413">
        <ele>899.9</ele>
        <time>2012-11-24T11:03:09Z</time>
      </trkpt>
      <trkpt lat="43.77018" lon="7.25391">
        <ele>898.4</ele>
        <time>2012-11-24T11:03:15Z</time>
      </trkpt>
      <trkpt lat="43.77026" lon="7.25378">
        <ele>897.6</ele>
        <time>2012-11-24T11:03:20Z</time>
      </trkpt>
      <trkpt lat="43.77022" lon="7.25378">
        <ele>895.9</ele>
        <time>2012-11-24T11:03:26Z</time>
      </trkpt>
      <trkpt lat="43.77011" lon="7.25375">
        <ele>892.1</ele>
        <time>2012-11-24T11:04:06Z</time>
      </trkpt>
      <trkpt lat="43.77025" lon="7.25355">
        <ele>889.6</ele>
        <time>2012-11-24T11:04:12Z</time>
      </trkpt>
      <trkpt lat="43.77039" lon="7.25351">
        <ele>884.9</ele>
        <time>2012-11-24T11:04:18Z</time>
      </trkpt>
      <trkpt lat="43.77063" lon="7.25349">
        <ele>882</ele>
        <time>2012-11-24T11:04:24Z</time>
      </trkpt>
      <trkpt lat="43.7708" lon="7.25342">
        <ele>880.5</ele>
        <time>2012-11-24T11:04:34Z</time>
      </trkpt>
      <trkpt lat="43.77087" lon="7.25339">
        <ele>880.7</ele>
        <time>2012-11-24T11:04:40Z</time>
      </trkpt>
      <trkpt lat="43.77119" lon="7.25364">
        <ele>885</ele>
        <time>2012-11-24T11:05:47Z</time>
      </trkpt>
      <trkpt lat="43.77125" lon="7.25363">
        <ele>887.3</ele>
        <time>2012-11-24T11:06:00Z</time>
      </trkpt>
      <trkpt lat="43.77137" lon="7.25367">
        <ele>888.3</ele>
        <time>2012-11-24T11:06:06Z</time>
      </trkpt>
      <trkpt lat="43.77148" lon="7.25372">
        <ele>888</ele>
        <time>2012-11-24T11:06:11Z</time>
      </trkpt>
      <trkpt lat="43.77159" lon="7.25378">
        <ele>888.3</ele>
        <time>2012-11-24T11:06:18Z</time>
      </trkpt>
      <trkpt lat="43.77185" lon="7.2541">
        <ele>896.1</ele>
        <time>2012-11-24T11:08:13Z</time>
      </trkpt>
      <trkpt lat="43.77178" lon="7.25433">
        <ele>897.6</ele>
        <time>2012-11-24T11:28:14Z</time>
      </trkpt>
      <trkpt lat="43.77178" lon="7.25419">
        <ele>896.7</ele>
        <time>2012-11-24T11:34:28Z</time>
      </trkpt>
      <trkpt lat="43.77184" lon="7.2544">
        <ele>895.9</ele>
        <time>2012-11-24T11:34:33Z</time>
      </trkpt>
      <trkpt lat="43.77197" lon="7.25458">
        <ele>895.4</ele>
        <time>2012-11-24T11:34:39Z</time>
      </trkpt>
      <trkpt lat="43.77216" lon="7.25436">
        <ele>895.3</ele>
        <time>2012-11-24T11:34:45Z</time>
      </trkpt>
      <trkpt lat="43.77223" lon="7.25434">
        <ele>894.5</ele>
        <time>2012-11-24T11:34:51Z</time>
      </trkpt>
      <trkpt lat="43.77235" lon="7.25426">
        <ele>893.7</ele>
        <time>2012-11-24T11:34:56Z</time>
      </trkpt>
      <trkpt lat="43.77253" lon="7.25415">
        <ele>893.2</ele>
        <time>2012-11-24T11:35:02Z</time>
      </trkpt>
      <trkpt lat="43.77271" lon="7.25397">
        <ele>892.7</ele>
        <time>2012-11-24T11:35:08Z</time>
      </trkpt>
      <trkpt lat="43.77289" lon="7.25386">
        <ele>892.3</ele>
        <time>2012-11-24T11:35:14Z</time>
      </trkpt>
      <trkpt lat="43.77305" lon="7.25388">
        <ele>890.3</ele>
        <time>2012-11-24T11:35:20Z</time>
      </trkpt>
      <trkpt lat="43.77318" lon="7.25394">
        <ele>888.1</ele>
        <time>2012-11-24T11:35:26Z</time>
      </trkpt>
      <trkpt lat="43.77334" lon="7.25389">
        <ele>887.6</ele>
        <time>2012-11-24T11:35:31Z</time>
      </trkpt>
      <trkpt lat="43.77352" lon="7.25382">
        <ele>887</ele>
        <time>2012-11-24T11:35:36Z</time>
      </trkpt>
      <trkpt lat="43.77367" lon="7.25371">
        <ele>885.2</ele>
        <time>2012-11-24T11:35:42Z</time>
      </trkpt>
      <trkpt lat="43.77384" lon="7.25364">
        <ele>884.5</ele>
        <time>2012-11-24T11:35:48Z</time>
      </trkpt>
      <trkpt lat="43.77401" lon="7.25359">
        <ele>882.2</ele>
        <time>2012-11-24T11:35:54Z</time>
      </trkpt>
      <trkpt lat="43.77415" lon="7.25359">
        <ele>879.8</ele>
        <time>2012-11-24T11:35:59Z</time>
      </trkpt>
      <trkpt lat="43.77427" lon="7.25352">
        <ele>874.5</ele>
        <time>2012-11-24T11:36:13Z</time>
      </trkpt>
      <trkpt lat="43.77432" lon="7.25351">
        <ele>872.3</ele>
        <time>2012-11-24T11:36:31Z</time>
      </trkpt>
      <trkpt lat="43.77437" lon="7.25348">
        <ele>870.7</ele>
        <time>2012-11-24T11:37:01Z</time>
      </trkpt>
      <trkpt lat="43.7744" lon="7.25341">
        <ele>865.7</ele>
        <time>2012-11-24T11:38:16Z</time>
      </trkpt>
      <trkpt lat="43.77429" lon="7.25345">
        <ele>865.8</ele>
        <time>2012-11-24T11:38:21Z</time>
      </trkpt>
      <trkpt lat="43.77422" lon="7.25349">
        <ele>866.6</ele>
        <time>2012-11-24T11:38:27Z</time>
      </trkpt>
      <trkpt lat="43.77425" lon="7.25356">
        <ele>866.7</ele>
        <time>2012-11-24T11:38:46Z</time>
      </trkpt>
      <trkpt lat="43.77441" lon="7.2535">
        <ele>866.1</ele>
        <time>2012-11-24T11:38:52Z</time>
      </trkpt>
      <trkpt lat="43.77457" lon="7.25334">
        <ele>864.9</ele>
        <time>2012-11-24T11:38:58Z</time>
      </trkpt>
      <trkpt lat="43.77476" lon="7.25328">
        <ele>863.5</ele>
        <time>2012-11-24T11:39:03Z</time>
      </trkpt>
      <trkpt lat="43.7749" lon="7.25325">
        <ele>862.5</ele>
        <time>2012-11-24T11:39:08Z</time>
      </trkpt>
      <trkpt lat="43.77511" lon="7.25315">
        <ele>859.1</ele>
        <time>2012-11-24T11:39:14Z</time>
      </trkpt>
      <trkpt lat="43.7753" lon="7.25292">
        <ele>855.3</ele>
        <time>2012-11-24T11:39:20Z</time>
      </trkpt>
      <trkpt lat="43.77545" lon="7.25294">
        <ele>851</ele>
        <time>2012-11-24T11:39:26Z</time>
      </trkpt>
      <trkpt lat="43.77564" lon="7.25287">
        <ele>847.9</ele>
        <time>2012-11-24T11:39:32Z</time>
      </trkpt>
      <trkpt lat="43.7758" lon="7.25274">
        <ele>844.7</ele>
        <time>2012-11-24T11:39:38Z</time>
      </trkpt>
      <trkpt lat="43.77588" lon="7.25262">
        <ele>839.2</ele>
        <time>2012-11-24T11:39:44Z</time>
      </trkpt>
      <trkpt lat="43.77592" lon="7.2525">
        <ele>837.1</ele>
        <time>2012-11-24T11:39:50Z</time>
      </trkpt>
      <trkpt lat="43.77599" lon="7.2524">
        <ele>834.6</ele>
        <time>2012-11-24T11:39:56Z</time>
      </trkpt>
      <trkpt lat="43.77598" lon="7.25227">
        <ele>831.4</ele>
        <time>2012-11-24T11:40:01Z</time>
      </trkpt>
      <trkpt lat="43.77604" lon="7.25212">
        <ele>827.6</ele>
        <time>2012-11-24T11:40:08Z</time>
      </trkpt>
      <trkpt lat="43.77593" lon="7.25194">
        <ele>822.7</ele>
        <time>2012-11-24T11:40:14Z</time>
      </trkpt>
      <trkpt lat="43.776" lon="7.25189">
        <ele>821.2</ele>
        <time>2012-11-24T11:40:20Z</time>
      </trkpt>
      <trkpt lat="43.77605" lon="7.2517">
        <ele>817.8</ele>
        <time>2012-11-24T11:40:26Z</time>
      </trkpt>
      <trkpt lat="43.77626" lon="7.25161">
        <ele>813.8</ele>
        <time>2012-11-24T11:40:32Z</time>
      </trkpt>
      <trkpt lat="43.77623" lon="7.25139">
        <ele>807.4</ele>
        <time>2012-11-24T11:40:38Z</time>
      </trkpt>
      <trkpt lat="43.77635" lon="7.25135">
        <ele>802.9</ele>
        <time>2012-11-24T11:40:44Z</time>
      </trkpt>
      <trkpt lat="43.77653" lon="7.25127">
        <ele>800</ele>
        <time>2012-11-24T11:40:50Z</time>
      </trkpt>
      <trkpt lat="43.77651" lon="7.25109">
        <ele>794.4</ele>
        <time>2012-11-24T11:40:56Z</time>
      </trkpt>
      <trkpt lat="43.77676" lon="7.25097">
        <ele>790.3</ele>
        <time>2012-11-24T11:41:01Z</time>
      </trkpt>
      <trkpt lat="43.77701" lon="7.25083">
        <ele>787.4</ele>
        <time>2012-11-24T11:41:07Z</time>
      </trkpt>
      <trkpt lat="43.77718" lon="7.25066">
        <ele>784</ele>
        <time>2012-11-24T11:41:13Z</time>
      </trkpt>
      <trkpt lat="43.7773" lon="7.25041">
        <ele>781</ele>
        <time>2012-11-24T11:41:18Z</time>
      </trkpt>
      <trkpt lat="43.77737" lon="7.25016">
        <ele>776.7</ele>
        <time>2012-11-24T11:41:24Z</time>
      </trkpt>
      <trkpt lat="43.77742" lon="7.25001">
        <ele>772.9</ele>
        <time>2012-11-24T11:41:29Z</time>
      </trkpt>
      <trkpt lat="43.77752" lon="7.24988">
        <ele>769.9</ele>
        <time>2012-11-24T11:41:35Z</time>
      </trkpt>
      <trkpt lat="43.77767" lon="7.24986">
        <ele>765.7</ele>
        <time>2012-11-24T11:41:41Z</time>
      </trkpt>
      <trkpt lat="43.77769" lon="7.2497">
        <ele>762.5</ele>
        <time>2012-11-24T11:41:47Z</time>
      </trkpt>
      <trkpt lat="43.77784" lon="7.24968">
        <ele>759</ele>
        <time>2012-11-24T11:41:53Z</time>
      </trkpt>
      <trkpt lat="43.7779" lon="7.24961">
        <ele>756.9</ele>
        <time>2012-11-24T11:41:58Z</time>
      </trkpt>
      <trkpt lat="43.77782" lon="7.24945">
        <ele>754</ele>
        <time>2012-11-24T11:42:03Z</time>
      </trkpt>
      <trkpt lat="43.77792" lon="7.24942">
        <ele>750.2</ele>
        <time>2012-11-24T11:42:08Z</time>
      </trkpt>
      <trkpt lat="43.77797" lon="7.24937">
        <ele>745.8</ele>
        <time>2012-11-24T11:42:14Z</time>
      </trkpt>
      <trkpt lat="43.77804" lon="7.24932">
        <ele>741.4</ele>
        <time>2012-11-24T11:42:20Z</time>
      </trkpt>
      <trkpt lat="43.7782" lon="7.24934">
        <ele>736.7</ele>
        <time>2012-11-24T11:42:26Z</time>
      </trkpt>
      <trkpt lat="43.77815" lon="7.24923">
        <ele>730.7</ele>
        <time>2012-11-24T11:42:32Z</time>
      </trkpt>
      <trkpt lat="43.77798" lon="7.24911">
        <ele>726.6</ele>
        <time>2012-11-24T11:42:38Z</time>
      </trkpt>
      <trkpt lat="43.77775" lon="7.24896">
        <ele>725</ele>
        <time>2012-11-24T11:42:44Z</time>
      </trkpt>
      <trkpt lat="43.77767" lon="7.249">
        <ele>714.2</ele>
        <time>2012-11-24T11:46:45Z</time>
      </trkpt>
      <trkpt lat="43.77755" lon="7.24904">
        <ele>714.4</ele>
        <time>2012-11-24T11:46:51Z</time>
      </trkpt>
      <trkpt lat="43.77739" lon="7.24907">
        <ele>714.9</ele>
        <time>2012-11-24T11:46:57Z</time>
      </trkpt>
      <trkpt lat="43.77719" lon="7.24916">
        <ele>715.7</ele>
        <time>2012-11-24T11:47:03Z</time>
      </trkpt>
      <trkpt lat="43.77701" lon="7.24922">
        <ele>716.4</ele>
        <time>2012-11-24T11:47:09Z</time>
      </trkpt>
      <trkpt lat="43.77679" lon="7.24916">
        <ele>716.3</ele>
        <time>2012-11-24T11:47:15Z</time>
      </trkpt>
      <trkpt lat="43.77659" lon="7.2491">
        <ele>718.2</ele>
        <time>2012-11-24T11:47:21Z</time>
      </trkpt>
      <trkpt lat="43.77646" lon="7.24912">
        <ele>718.6</ele>
        <time>2012-11-24T11:47:27Z</time>
      </trkpt>
      <trkpt lat="43.77632" lon="7.24911">
        <ele>720.2</ele>
        <time>2012-11-24T11:47:33Z</time>
      </trkpt>
      <trkpt lat="43.7762" lon="7.24913">
        <ele>721.7</ele>
        <time>2012-11-24T11:47:38Z</time>
      </trkpt>
      <trkpt lat="43.77609" lon="7.24911">
        <ele>724.1</ele>
        <time>2012-11-24T11:47:44Z</time>
      </trkpt>
      <trkpt lat="43.77595" lon="7.24913">
        <ele>724.9</ele>
        <time>2012-11-24T11:47:50Z</time>
      </trkpt>
      <trkpt lat="43.77577" lon="7.24918">
        <ele>724.6</ele>
        <time>2012-11-24T11:47:56Z</time>
      </trkpt>
      <trkpt lat="43.77563" lon="7.24924">
        <ele>725.2</ele>
        <time>2012-11-24T11:48:01Z</time>
      </trkpt>
      <trkpt lat="43.77547" lon="7.24928">
        <ele>724.9</ele>
        <time>2012-11-24T11:48:07Z</time>
      </trkpt>
      <trkpt lat="43.77531" lon="7.24933">
        <ele>725.1</ele>
        <time>2012-11-24T11:48:13Z</time>
      </trkpt>
      <trkpt lat="43.77514" lon="7.24937">
        <ele>726.5</ele>
        <time>2012-11-24T11:48:19Z</time>
      </trkpt>
      <trkpt lat="43.77495" lon="7.2494">
        <ele>726.6</ele>
        <time>2012-11-24T11:48:25Z</time>
      </trkpt>
      <trkpt lat="43.77481" lon="7.24942">
        <ele>726.6</ele>
        <time>2012-11-24T11:48:30Z</time>
      </trkpt>
      <trkpt lat="43.77463" lon="7.24946">
        <ele>726.9</ele>
        <time>2012-11-24T11:48:36Z</time>
      </trkpt>
      <trkpt lat="43.77446" lon="7.24945">
        <ele>727.6</ele>
        <time>2012-11-24T11:48:42Z</time>
      </trkpt>
      <trkpt lat="43.7743" lon="7.24946">
        <ele>729.5</ele>
        <time>2012-11-24T11:48:49Z</time>
      </trkpt>
      <trkpt lat="43.77421" lon="7.24949">
        <ele>730.6</ele>
        <time>2012-11-24T11:48:56Z</time>
      </trkpt>
      <trkpt lat="43.77401" lon="7.24949">
        <ele>731.2</ele>
        <time>2012-11-24T11:49:27Z</time>
      </trkpt>
      <trkpt lat="43.77389" lon="7.24948">
        <ele>731.1</ele>
        <time>2012-11-24T11:49:32Z</time>
      </trkpt>
      <trkpt lat="43.77379" lon="7.24949">
        <ele>732.6</ele>
        <time>2012-11-24T11:49:38Z</time>
      </trkpt>
      <trkpt lat="43.77356" lon="7.24956">
        <ele>735</ele>
        <time>2012-11-24T11:50:02Z</time>
      </trkpt>
      <trkpt lat="43.77338" lon="7.24964">
        <ele>736.8</ele>
        <time>2012-11-24T11:50:19Z</time>
      </trkpt>
      <trkpt lat="43.7733" lon="7.24962">
        <ele>738</ele>
        <time>2012-11-24T11:50:25Z</time>
      </trkpt>
      <trkpt lat="43.77323" lon="7.24963">
        <ele>739.1</ele>
        <time>2012-11-24T11:50:30Z</time>
      </trkpt>
      <trkpt lat="43.77298" lon="7.24971">
        <ele>741.9</ele>
        <time>2012-11-24T11:50:56Z</time>
      </trkpt>
      <trkpt lat="43.77286" lon="7.24972">
        <ele>742.2</ele>
        <time>2012-11-24T11:51:02Z</time>
      </trkpt>
      <trkpt lat="43.77271" lon="7.24974">
        <ele>742.6</ele>
        <time>2012-11-24T11:51:08Z</time>
      </trkpt>
      <trkpt lat="43.77266" lon="7.24976">
        <ele>743.7</ele>
        <time>2012-11-24T11:52:47Z</time>
      </trkpt>
      <trkpt lat="43.77252" lon="7.24975">
        <ele>744.4</ele>
        <time>2012-11-24T11:52:52Z</time>
      </trkpt>
      <trkpt lat="43.77236" lon="7.24981">
        <ele>745.2</ele>
        <time>2012-11-24T11:52:58Z</time>
      </trkpt>
      <trkpt lat="43.77222" lon="7.24986">
        <ele>745.7</ele>
        <time>2012-11-24T11:53:03Z</time>
      </trkpt>
      <trkpt lat="43.77204" lon="7.24988">
        <ele>746</ele>
        <time>2012-11-24T11:53:09Z</time>
      </trkpt>
      <trkpt lat="43.77183" lon="7.2499">
        <ele>746.5</ele>
        <time>2012-11-24T11:53:15Z</time>
      </trkpt>
      <trkpt lat="43.7716" lon="7.24993">
        <ele>746.7</ele>
        <time>2012-11-24T11:53:21Z</time>
      </trkpt>
      <trkpt lat="43.77139" lon="7.24992">
        <ele>746.9</ele>
        <time>2012-11-24T11:53:27Z</time>
      </trkpt>
      <trkpt lat="43.7712" lon="7.24992">
        <ele>747.1</ele>
        <time>2012-11-24T11:53:33Z</time>
      </trkpt>
      <trkpt lat="43.77099" lon="7.24994">
        <ele>746.7</ele>
        <time>2012-11-24T11:53:39Z</time>
      </trkpt>
      <trkpt lat="43.77078" lon="7.24993">
        <ele>746.4</ele>
        <time>2012-11-24T11:53:45Z</time>
      </trkpt>
      <trkpt lat="43.77061" lon="7.24982">
        <ele>746.2</ele>
        <time>2012-11-24T11:53:51Z</time>
      </trkpt>
      <trkpt lat="43.77044" lon="7.24969">
        <ele>746.6</ele>
        <time>2012-11-24T11:53:57Z</time>
      </trkpt>
      <trkpt lat="43.77029" lon="7.24964">
        <ele>747.2</ele>
        <time>2012-11-24T11:54:02Z</time>
      </trkpt>
      <trkpt lat="43.7702" lon="7.24972">
        <ele>747.1</ele>
        <time>2012-11-24T11:54:08Z</time>
      </trkpt>
      <trkpt lat="43.77007" lon="7.24982">
        <ele>746.8</ele>
        <time>2012-11-24T11:54:14Z</time>
      </trkpt>
      <trkpt lat="43.76989" lon="7.2499">
        <ele>746.9</ele>
        <time>2012-11-24T11:54:20Z</time>
      </trkpt>
      <trkpt lat="43.76965" lon="7.24997">
        <ele>746.6</ele>
        <time>2012-11-24T11:54:26Z</time>
      </trkpt>
      <trkpt lat="43.7694" lon="7.25005">
        <ele>746.2</ele>
        <time>2012-11-24T11:54:32Z</time>
      </trkpt>
      <trkpt lat="43.76913" lon="7.25019">
        <ele>744.3</ele>
        <time>2012-11-24T11:54:38Z</time>
      </trkpt>
      <trkpt lat="43.76877" lon="7.25031">
        <ele>741.5</ele>
        <time>2012-11-24T11:54:44Z</time>
      </trkpt>
      <trkpt lat="43.76845" lon="7.25033">
        <ele>735.9</ele>
        <time>2012-11-24T11:54:52Z</time>
      </trkpt>
      <trkpt lat="43.76847" lon="7.25037">
        <ele>733.3</ele>
        <time>2012-11-24T11:55:21Z</time>
      </trkpt>
      <trkpt lat="43.76822" lon="7.25044">
        <ele>731.5</ele>
        <time>2012-11-24T11:55:27Z</time>
      </trkpt>
      <trkpt lat="43.76812" lon="7.25043">
        <ele>733.5</ele>
        <time>2012-11-24T11:56:03Z</time>
      </trkpt>
      <trkpt lat="43.76801" lon="7.25038">
        <ele>733.2</ele>
        <time>2012-11-24T11:56:09Z</time>
      </trkpt>
      <trkpt lat="43.76792" lon="7.25033">
        <ele>733.6</ele>
        <time>2012-11-24T11:56:14Z</time>
      </trkpt>
      <trkpt lat="43.76771" lon="7.25041">
        <ele>732.5</ele>
        <time>2012-11-24T11:56:20Z</time>
      </trkpt>
      <trkpt lat="43.76744" lon="7.2505">
        <ele>731.1</ele>
        <time>2012-11-24T11:56:26Z</time>
      </trkpt>
      <trkpt lat="43.76722" lon="7.25054">
        <ele>729.6</ele>
        <time>2012-11-24T11:56:32Z</time>
      </trkpt>
      <trkpt lat="43.76703" lon="7.25054">
        <ele>727.3</ele>
        <time>2012-11-24T11:56:38Z</time>
      </trkpt>
      <trkpt lat="43.76683" lon="7.2505">
        <ele>725</ele>
        <time>2012-11-24T11:56:44Z</time>
      </trkpt>
      <trkpt lat="43.76672" lon="7.25079">
        <ele>721.8</ele>
        <time>2012-11-24T11:56:50Z</time>
      </trkpt>
      <trkpt lat="43.76651" lon="7.25091">
        <ele>718.4</ele>
        <time>2012-11-24T11:56:56Z</time>
      </trkpt>
      <trkpt lat="43.76626" lon="7.25094">
        <ele>716.9</ele>
        <time>2012-11-24T11:57:01Z</time>
      </trkpt>
      <trkpt lat="43.76597" lon="7.25101">
        <ele>714.3</ele>
        <time>2012-11-24T11:57:07Z</time>
      </trkpt>
      <trkpt lat="43.76573" lon="7.25111">
        <ele>709.2</ele>
        <time>2012-11-24T11:57:13Z</time>
      </trkpt>
      <trkpt lat="43.76545" lon="7.25126">
        <ele>705.4</ele>
        <time>2012-11-24T11:57:19Z</time>
      </trkpt>
      <trkpt lat="43.76516" lon="7.25125">
        <ele>702.1</ele>
        <time>2012-11-24T11:57:25Z</time>
      </trkpt>
      <trkpt lat="43.76492" lon="7.25113">
        <ele>699.1</ele>
        <time>2012-11-24T11:57:31Z</time>
      </trkpt>
      <trkpt lat="43.76473" lon="7.25112">
        <ele>697.9</ele>
        <time>2012-11-24T11:57:37Z</time>
      </trkpt>
      <trkpt lat="43.76466" lon="7.25114">
        <ele>696.1</ele>
        <time>2012-11-24T11:57:42Z</time>
      </trkpt>
      <trkpt lat="43.76461" lon="7.25115">
        <ele>695.6</ele>
        <time>2012-11-24T11:58:08Z</time>
      </trkpt>
      <trkpt lat="43.76444" lon="7.25119">
        <ele>694.6</ele>
        <time>2012-11-24T11:58:14Z</time>
      </trkpt>
      <trkpt lat="43.76426" lon="7.25127">
        <ele>693.2</ele>
        <time>2012-11-24T11:58:20Z</time>
      </trkpt>
      <trkpt lat="43.76402" lon="7.25137">
        <ele>691.7</ele>
        <time>2012-11-24T11:58:26Z</time>
      </trkpt>
      <trkpt lat="43.7638" lon="7.25156">
        <ele>688.9</ele>
        <time>2012-11-24T11:58:32Z</time>
      </trkpt>
      <trkpt lat="43.76364" lon="7.25172">
        <ele>686.4</ele>
        <time>2012-11-24T11:58:38Z</time>
      </trkpt>
      <trkpt lat="43.76358" lon="7.25181">
        <ele>682.6</ele>
        <time>2012-11-24T11:59:09Z</time>
      </trkpt>
      <trkpt lat="43.76344" lon="7.25177">
        <ele>680.6</ele>
        <time>2012-11-24T11:59:14Z</time>
      </trkpt>
      <trkpt lat="43.76335" lon="7.25162">
        <ele>677.9</ele>
        <time>2012-11-24T11:59:21Z</time>
      </trkpt>
      <trkpt lat="43.76321" lon="7.25156">
        <ele>675.1</ele>
        <time>2012-11-24T11:59:27Z</time>
      </trkpt>
      <trkpt lat="43.76313" lon="7.25147">
        <ele>659.9</ele>
        <time>2012-11-24T12:02:05Z</time>
      </trkpt>
      <trkpt lat="43.76319" lon="7.25134">
        <ele>657.2</ele>
        <time>2012-11-24T12:02:10Z</time>
      </trkpt>
      <trkpt lat="43.76317" lon="7.25119">
        <ele>656.3</ele>
        <time>2012-11-24T12:02:16Z</time>
      </trkpt>
      <trkpt lat="43.76303" lon="7.25115">
        <ele>654.5</ele>
        <time>2012-11-24T12:02:22Z</time>
      </trkpt>
      <trkpt lat="43.76289" lon="7.25116">
        <ele>652.8</ele>
        <time>2012-11-24T12:02:28Z</time>
      </trkpt>
      <trkpt lat="43.76279" lon="7.25114">
        <ele>651.1</ele>
        <time>2012-11-24T12:02:33Z</time>
      </trkpt>
      <trkpt lat="43.76274" lon="7.25103">
        <ele>647.6</ele>
        <time>2012-11-24T12:02:40Z</time>
      </trkpt>
      <trkpt lat="43.76267" lon="7.251">
        <ele>643.8</ele>
        <time>2012-11-24T12:02:46Z</time>
      </trkpt>
      <trkpt lat="43.76259" lon="7.25101">
        <ele>640.6</ele>
        <time>2012-11-24T12:02:51Z</time>
      </trkpt>
      <trkpt lat="43.76266" lon="7.25087">
        <ele>636</ele>
        <time>2012-11-24T12:02:56Z</time>
      </trkpt>
      <trkpt lat="43.76258" lon="7.2508">
        <ele>634.2</ele>
        <time>2012-11-24T12:03:01Z</time>
      </trkpt>
      <trkpt lat="43.76265" lon="7.25058">
        <ele>629.6</ele>
        <time>2012-11-24T12:03:07Z</time>
      </trkpt>
      <trkpt lat="43.76264" lon="7.25049">
        <ele>622.9</ele>
        <time>2012-11-24T12:03:36Z</time>
      </trkpt>
      <trkpt lat="43.76253" lon="7.25049">
        <ele>615.7</ele>
        <time>2012-11-24T12:04:01Z</time>
      </trkpt>
      <trkpt lat="43.76245" lon="7.25041">
        <ele>614.5</ele>
        <time>2012-11-24T12:04:07Z</time>
      </trkpt>
      <trkpt lat="43.76246" lon="7.25029">
        <ele>611</ele>
        <time>2012-11-24T12:04:13Z</time>
      </trkpt>
      <trkpt lat="43.76237" lon="7.2502">
        <ele>609.3</ele>
        <time>2012-11-24T12:04:19Z</time>
      </trkpt>
      <trkpt lat="43.76223" lon="7.25017">
        <ele>606.9</ele>
        <time>2012-11-24T12:04:24Z</time>
      </trkpt>
      <trkpt lat="43.76226" lon="7.25003">
        <ele>601.5</ele>
        <time>2012-11-24T12:04:30Z</time>
      </trkpt>
      <trkpt lat="43.7621" lon="7.25001">
        <ele>597.6</ele>
        <time>2012-11-24T12:04:36Z</time>
      </trkpt>
      <trkpt lat="43.762" lon="7.24994">
        <ele>593.8</ele>
        <time>2012-11-24T12:04:43Z</time>
      </trkpt>
      <trkpt lat="43.76187" lon="7.24997">
        <ele>589.9</ele>
        <time>2012-11-24T12:04:49Z</time>
      </trkpt>
      <trkpt lat="43.76184" lon="7.24979">
        <ele>586.6</ele>
        <time>2012-11-24T12:04:55Z</time>
      </trkpt>
      <trkpt lat="43.76181" lon="7.24968">
        <ele>582.7</ele>
        <time>2012-11-24T12:05:01Z</time>
      </trkpt>
      <trkpt lat="43.76169" lon="7.24965">
        <ele>580.2</ele>
        <time>2012-11-24T12:05:06Z</time>
      </trkpt>
      <trkpt lat="43.76183" lon="7.24941">
        <ele>575.2</ele>
        <time>2012-11-24T12:05:12Z</time>
      </trkpt>
      <trkpt lat="43.76182" lon="7.24929">
        <ele>572.5</ele>
        <time>2012-11-24T12:05:17Z</time>
      </trkpt>
      <trkpt lat="43.76183" lon="7.24909">
        <ele>567.2</ele>
        <time>2012-11-24T12:05:24Z</time>
      </trkpt>
      <trkpt lat="43.76169" lon="7.24902">
        <ele>563.7</ele>
        <time>2012-11-24T12:05:29Z</time>
      </trkpt>
      <trkpt lat="43.76149" lon="7.24899">
        <ele>559.3</ele>
        <time>2012-11-24T12:05:35Z</time>
      </trkpt>
      <trkpt lat="43.76149" lon="7.24879">
        <ele>555.7</ele>
        <time>2012-11-24T12:05:40Z</time>
      </trkpt>
      <trkpt lat="43.76138" lon="7.24876">
        <ele>552.3</ele>
        <time>2012-11-24T12:05:45Z</time>
      </trkpt>
      <trkpt lat="43.76123" lon="7.24879">
        <ele>548.5</ele>
        <time>2012-11-24T12:05:50Z</time>
      </trkpt>
      <trkpt lat="43.76105" lon="7.24883">
        <ele>544.5</ele>
        <time>2012-11-24T12:05:56Z</time>
      </trkpt>
      <trkpt lat="43.76089" lon="7.24888">
        <ele>537.1</ele>
        <time>2012-11-24T12:06:02Z</time>
      </trkpt>
      <trkpt lat="43.7607" lon="7.24897">
        <ele>534.3</ele>
        <time>2012-11-24T12:06:08Z</time>
      </trkpt>
      <trkpt lat="43.76057" lon="7.24904">
        <ele>531.8</ele>
        <time>2012-11-24T12:06:14Z</time>
      </trkpt>
      <trkpt lat="43.76053" lon="7.24907">
        <ele>529.8</ele>
        <time>2012-11-24T12:09:40Z</time>
      </trkpt>
      <trkpt lat="43.76037" lon="7.24908">
        <ele>529.2</ele>
        <time>2012-11-24T12:09:46Z</time>
      </trkpt>
      <trkpt lat="43.7602" lon="7.24899">
        <ele>528.4</ele>
        <time>2012-11-24T12:09:53Z</time>
      </trkpt>
      <trkpt lat="43.76024" lon="7.24884">
        <ele>524.9</ele>
        <time>2012-11-24T12:09:59Z</time>
      </trkpt>
      <trkpt lat="43.76006" lon="7.24865">
        <ele>522.7</ele>
        <time>2012-11-24T12:10:05Z</time>
      </trkpt>
      <trkpt lat="43.75997" lon="7.24835">
        <ele>521.3</ele>
        <time>2012-11-24T12:10:10Z</time>
      </trkpt>
      <trkpt lat="43.75989" lon="7.24818">
        <ele>520.8</ele>
        <time>2012-11-24T12:10:15Z</time>
      </trkpt>
      <trkpt lat="43.75989" lon="7.24799">
        <ele>519.2</ele>
        <time>2012-11-24T12:10:21Z</time>
      </trkpt>
      <trkpt lat="43.75993" lon="7.24785">
        <ele>516.5</ele>
        <time>2012-11-24T12:10:26Z</time>
      </trkpt>
      <trkpt lat="43.75996" lon="7.24769">
        <ele>512.8</ele>
        <time>2012-11-24T12:10:32Z</time>
      </trkpt>
      <trkpt lat="43.75991" lon="7.24759">
        <ele>509.4</ele>
        <time>2012-11-24T12:10:38Z</time>
      </trkpt>
      <trkpt lat="43.75971" lon="7.24762">
        <ele>507.3</ele>
        <time>2012-11-24T12:10:44Z</time>
      </trkpt>
      <trkpt lat="43.75949" lon="7.24782">
        <ele>503.9</ele>
        <time>2012-11-24T12:10:50Z</time>
      </trkpt>
      <trkpt lat="43.75937" lon="7.24817">
        <ele>500.3</ele>
        <time>2012-11-24T12:10:56Z</time>
      </trkpt>
      <trkpt lat="43.7593" lon="7.24851">
        <ele>497.9</ele>
        <time>2012-11-24T12:11:02Z</time>
      </trkpt>
      <trkpt lat="43.75923" lon="7.24882">
        <ele>495.9</ele>
        <time>2012-11-24T12:11:08Z</time>
      </trkpt>
      <trkpt lat="43.75917" lon="7.24911">
        <ele>495.5</ele>
        <time>2012-11-24T12:11:14Z</time>
      </trkpt>
      <trkpt lat="43.75906" lon="7.24936">
        <ele>494.5</ele>
        <time>2012-11-24T12:11:20Z</time>
      </trkpt>
      <trkpt lat="43.75889" lon="7.24953">
        <ele>493.2</ele>
        <time>2012-11-24T12:11:26Z</time>
      </trkpt>
      <trkpt lat="43.7587" lon="7.24969">
        <ele>492.5</ele>
        <time>2012-11-24T12:11:32Z</time>
      </trkpt>
      <trkpt lat="43.75861" lon="7.2498">
        <ele>491.5</ele>
        <time>2012-11-24T12:11:38Z</time>
      </trkpt>
      <trkpt lat="43.75853" lon="7.24993">
        <ele>491.2</ele>
        <time>2012-11-24T12:11:44Z</time>
      </trkpt>
      <trkpt lat="43.75838" lon="7.25">
        <ele>492.1</ele>
        <time>2012-11-24T12:11:50Z</time>
      </trkpt>
      <trkpt lat="43.75823" lon="7.25006">
        <ele>491.8</ele>
        <time>2012-11-24T12:11:56Z</time>
      </trkpt>
      <trkpt lat="43.75806" lon="7.25009">
        <ele>491.3</ele>
        <time>2012-11-24T12:12:02Z</time>
      </trkpt>
      <trkpt lat="43.7579" lon="7.25024">
        <ele>490.8</ele>
        <time>2012-11-24T12:12:08Z</time>
      </trkpt>
      <trkpt lat="43.75774" lon="7.25038">
        <ele>490.1</ele>
        <time>2012-11-24T12:12:14Z</time>
      </trkpt>
      <trkpt lat="43.75759" lon="7.25052">
        <ele>489.5</ele>
        <time>2012-11-24T12:12:20Z</time>
      </trkpt>
      <trkpt lat="43.75743" lon="7.25064">
        <ele>489.5</ele>
        <time>2012-11-24T12:12:26Z</time>
      </trkpt>
      <trkpt lat="43.75725" lon="7.25076">
        <ele>488.6</ele>
        <time>2012-11-24T12:12:32Z</time>
      </trkpt>
      <trkpt lat="43.75712" lon="7.25089">
        <ele>488.5</ele>
        <time>2012-11-24T12:12:38Z</time>
      </trkpt>
      <trkpt lat="43.75702" lon="7.25102">
        <ele>489</ele>
        <time>2012-11-24T12:12:45Z</time>
      </trkpt>
      <trkpt lat="43.75694" lon="7.25109">
        <ele>488.8</ele>
        <time>2012-11-24T12:12:50Z</time>
      </trkpt>
      <trkpt lat="43.75684" lon="7.25117">
        <ele>489.6</ele>
        <time>2012-11-24T12:12:58Z</time>
      </trkpt>
      <trkpt lat="43.75676" lon="7.25128">
        <ele>490.2</ele>
        <time>2012-11-24T12:13:07Z</time>
      </trkpt>
      <trkpt lat="43.75668" lon="7.25137">
        <ele>490.3</ele>
        <time>2012-11-24T12:13:13Z</time>
      </trkpt>
      <trkpt lat="43.75658" lon="7.25141">
        <ele>491.4</ele>
        <time>2012-11-24T12:13:19Z</time>
      </trkpt>
      <trkpt lat="43.75646" lon="7.2515">
        <ele>490.4</ele>
        <time>2012-11-24T12:13:26Z</time>
      </trkpt>
      <trkpt lat="43.75633" lon="7.25154">
        <ele>490.5</ele>
        <time>2012-11-24T12:13:32Z</time>
      </trkpt>
      <trkpt lat="43.75618" lon="7.25159">
        <ele>493</ele>
        <time>2012-11-24T12:13:38Z</time>
      </trkpt>
      <trkpt lat="43.75607" lon="7.2517">
        <ele>494.5</ele>
        <time>2012-11-24T12:13:45Z</time>
      </trkpt>
      <trkpt lat="43.75594" lon="7.25177">
        <ele>494.8</ele>
        <time>2012-11-24T12:13:51Z</time>
      </trkpt>
      <trkpt lat="43.75581" lon="7.25183">
        <ele>497</ele>
        <time>2012-11-24T12:13:57Z</time>
      </trkpt>
      <trkpt lat="43.75567" lon="7.25189">
        <ele>496.5</ele>
        <time>2012-11-24T12:14:03Z</time>
      </trkpt>
      <trkpt lat="43.75555" lon="7.25181">
        <ele>497.1</ele>
        <time>2012-11-24T12:14:09Z</time>
      </trkpt>
      <trkpt lat="43.75542" lon="7.25195">
        <ele>493.3</ele>
        <time>2012-11-24T12:14:33Z</time>
      </trkpt>
      <trkpt lat="43.75536" lon="7.25204">
        <ele>491.7</ele>
        <time>2012-11-24T12:14:39Z</time>
      </trkpt>
      <trkpt lat="43.7553" lon="7.25215">
        <ele>490.5</ele>
        <time>2012-11-24T12:14:45Z</time>
      </trkpt>
      <trkpt lat="43.75523" lon="7.25229">
        <ele>490.2</ele>
        <time>2012-11-24T12:14:51Z</time>
      </trkpt>
      <trkpt lat="43.75516" lon="7.25237">
        <ele>490.9</ele>
        <time>2012-11-24T12:14:56Z</time>
      </trkpt>
      <trkpt lat="43.7551" lon="7.25247">
        <ele>490.2</ele>
        <time>2012-11-24T12:15:01Z</time>
      </trkpt>
      <trkpt lat="43.75501" lon="7.25258">
        <ele>492.2</ele>
        <time>2012-11-24T12:15:07Z</time>
      </trkpt>
      <trkpt lat="43.75491" lon="7.2527">
        <ele>492.2</ele>
        <time>2012-11-24T12:15:13Z</time>
      </trkpt>
      <trkpt lat="43.75482" lon="7.25281">
        <ele>492.1</ele>
        <time>2012-11-24T12:15:19Z</time>
      </trkpt>
      <trkpt lat="43.75473" lon="7.25292">
        <ele>492.1</ele>
        <time>2012-11-24T12:15:25Z</time>
      </trkpt>
      <trkpt lat="43.75468" lon="7.25301">
        <ele>491.9</ele>
        <time>2012-11-24T12:15:30Z</time>
      </trkpt>
      <trkpt lat="43.75461" lon="7.2531">
        <ele>492.5</ele>
        <time>2012-11-24T12:15:36Z</time>
      </trkpt>
      <trkpt lat="43.75454" lon="7.25321">
        <ele>493.1</ele>
        <time>2012-11-24T12:15:42Z</time>
      </trkpt>
      <trkpt lat="43.75447" lon="7.2533">
        <ele>493.2</ele>
        <time>2012-11-24T12:15:49Z</time>
      </trkpt>
      <trkpt lat="43.75441" lon="7.2534">
        <ele>493.8</ele>
        <time>2012-11-24T12:15:55Z</time>
      </trkpt>
      <trkpt lat="43.75433" lon="7.25354">
        <ele>505.9</ele>
        <time>2012-11-24T12:18:06Z</time>
      </trkpt>
      <trkpt lat="43.75444" lon="7.25339">
        <ele>506.7</ele>
        <time>2012-11-24T12:18:12Z</time>
      </trkpt>
      <trkpt lat="43.75462" lon="7.25315">
        <ele>506.4</ele>
        <time>2012-11-24T12:18:18Z</time>
      </trkpt>
      <trkpt lat="43.75479" lon="7.2529">
        <ele>505.6</ele>
        <time>2012-11-24T12:18:23Z</time>
      </trkpt>
      <trkpt lat="43.75497" lon="7.25265">
        <ele>504.6</ele>
        <time>2012-11-24T12:18:28Z</time>
      </trkpt>
      <trkpt lat="43.75494" lon="7.25228">
        <ele>503.8</ele>
        <time>2012-11-24T12:18:34Z</time>
      </trkpt>
      <trkpt lat="43.75468" lon="7.25228">
        <ele>504.4</ele>
        <time>2012-11-24T12:18:40Z</time>
      </trkpt>
      <trkpt lat="43.75449" lon="7.25229">
        <ele>504.4</ele>
        <time>2012-11-24T12:18:45Z</time>
      </trkpt>
      <trkpt lat="43.75427" lon="7.25232">
        <ele>504.6</ele>
        <time>2012-11-24T12:18:51Z</time>
      </trkpt>
      <trkpt lat="43.75405" lon="7.25246">
        <ele>503.4</ele>
        <time>2012-11-24T12:18:57Z</time>
      </trkpt>
      <trkpt lat="43.75388" lon="7.2526">
        <ele>502.5</ele>
        <time>2012-11-24T12:19:02Z</time>
      </trkpt>
      <trkpt lat="43.75377" lon="7.2528">
        <ele>500.1</ele>
        <time>2012-11-24T12:19:08Z</time>
      </trkpt>
      <trkpt lat="43.75356" lon="7.253">
        <ele>500.5</ele>
        <time>2012-11-24T12:19:14Z</time>
      </trkpt>
      <trkpt lat="43.75327" lon="7.25305">
        <ele>501.9</ele>
        <time>2012-11-24T12:19:20Z</time>
      </trkpt>
      <trkpt lat="43.75297" lon="7.25304">
        <ele>501.9</ele>
        <time>2012-11-24T12:19:26Z</time>
      </trkpt>
      <trkpt lat="43.75273" lon="7.253">
        <ele>498.9</ele>
        <time>2012-11-24T12:19:32Z</time>
      </trkpt>
      <trkpt lat="43.7525" lon="7.25295">
        <ele>497.5</ele>
        <time>2012-11-24T12:19:38Z</time>
      </trkpt>
      <trkpt lat="43.75225" lon="7.25299">
        <ele>495.4</ele>
        <time>2012-11-24T12:19:44Z</time>
      </trkpt>
      <trkpt lat="43.75201" lon="7.25304">
        <ele>494.3</ele>
        <time>2012-11-24T12:19:50Z</time>
      </trkpt>
      <trkpt lat="43.75191" lon="7.25322">
        <ele>490.8</ele>
        <time>2012-11-24T12:19:56Z</time>
      </trkpt>
      <trkpt lat="43.75187" lon="7.25336">
        <ele>490.7</ele>
        <time>2012-11-24T12:20:14Z</time>
      </trkpt>
      <trkpt lat="43.75184" lon="7.25347">
        <ele>487.9</ele>
        <time>2012-11-24T12:20:20Z</time>
      </trkpt>
      <trkpt lat="43.75184" lon="7.2537">
        <ele>484.4</ele>
        <time>2012-11-24T12:20:26Z</time>
      </trkpt>
      <trkpt lat="43.75174" lon="7.25381">
        <ele>483.9</ele>
        <time>2012-11-24T12:20:32Z</time>
      </trkpt>
      <trkpt lat="43.75152" lon="7.25414">
        <ele>482.9</ele>
        <time>2012-11-24T12:20:38Z</time>
      </trkpt>
      <trkpt lat="43.75132" lon="7.25453">
        <ele>481.7</ele>
        <time>2012-11-24T12:20:44Z</time>
      </trkpt>
      <trkpt lat="43.75119" lon="7.25491">
        <ele>481.4</ele>
        <time>2012-11-24T12:20:50Z</time>
      </trkpt>
      <trkpt lat="43.7511" lon="7.25518">
        <ele>480.2</ele>
        <time>2012-11-24T12:20:56Z</time>
      </trkpt>
      <trkpt lat="43.75093" lon="7.25527">
        <ele>479.4</ele>
        <time>2012-11-24T12:21:01Z</time>
      </trkpt>
      <trkpt lat="43.75075" lon="7.2553">
        <ele>480.7</ele>
        <time>2012-11-24T12:21:07Z</time>
      </trkpt>
      <trkpt lat="43.75061" lon="7.2553">
        <ele>480.7</ele>
        <time>2012-11-24T12:21:12Z</time>
      </trkpt>
      <trkpt lat="43.75044" lon="7.25533">
        <ele>480.1</ele>
        <time>2012-11-24T12:21:18Z</time>
      </trkpt>
      <trkpt lat="43.75021" lon="7.25539">
        <ele>479.3</ele>
        <time>2012-11-24T12:21:23Z</time>
      </trkpt>
      <trkpt lat="43.74995" lon="7.25547">
        <ele>479.4</ele>
        <time>2012-11-24T12:21:29Z</time>
      </trkpt>
      <trkpt lat="43.74973" lon="7.25549">
        <ele>478.4</ele>
        <time>2012-11-24T12:21:34Z</time>
      </trkpt>
      <trkpt lat="43.74957" lon="7.25555">
        <ele>476.8</ele>
        <time>2012-11-24T12:21:40Z</time>
      </trkpt>
      <trkpt lat="43.74938" lon="7.25553">
        <ele>474.8</ele>
        <time>2012-11-24T12:21:47Z</time>
      </trkpt>
      <trkpt lat="43.74925" lon="7.25557">
        <ele>474</ele>
        <time>2012-11-24T12:21:53Z</time>
      </trkpt>
      <trkpt lat="43.74907" lon="7.2556">
        <ele>473.4</ele>
        <time>2012-11-24T12:21:58Z</time>
      </trkpt>
      <trkpt lat="43.7489" lon="7.25564">
        <ele>472.8</ele>
        <time>2012-11-24T12:22:04Z</time>
      </trkpt>
      <trkpt lat="43.74876" lon="7.25562">
        <ele>472.5</ele>
        <time>2012-11-24T12:22:09Z</time>
      </trkpt>
      <trkpt lat="43.74854" lon="7.25562">
        <ele>472.9</ele>
        <time>2012-11-24T12:22:14Z</time>
      </trkpt>
      <trkpt lat="43.74829" lon="7.25566">
        <ele>472.1</ele>
        <time>2012-11-24T12:22:20Z</time>
      </trkpt>
      <trkpt lat="43.74815" lon="7.25569">
        <ele>471.7</ele>
        <time>2012-11-24T12:22:26Z</time>
      </trkpt>
      <trkpt lat="43.74802" lon="7.25568">
        <ele>472.1</ele>
        <time>2012-11-24T12:22:50Z</time>
      </trkpt>
      <trkpt lat="43.74785" lon="7.25569">
        <ele>471.6</ele>
        <time>2012-11-24T12:22:56Z</time>
      </trkpt>
      <trkpt lat="43.74758" lon="7.25574">
        <ele>471.5</ele>
        <time>2012-11-24T12:23:02Z</time>
      </trkpt>
      <trkpt lat="43.7473" lon="7.25572">
        <ele>472.7</ele>
        <time>2012-11-24T12:23:08Z</time>
      </trkpt>
      <trkpt lat="43.747" lon="7.25569">
        <ele>473.3</ele>
        <time>2012-11-24T12:23:14Z</time>
      </trkpt>
      <trkpt lat="43.7468" lon="7.25574">
        <ele>472.4</ele>
        <time>2012-11-24T12:23:20Z</time>
      </trkpt>
      <trkpt lat="43.74667" lon="7.25583">
        <ele>471.3</ele>
        <time>2012-11-24T12:23:26Z</time>
      </trkpt>
      <trkpt lat="43.74651" lon="7.25588">
        <ele>469.9</ele>
        <time>2012-11-24T12:23:32Z</time>
      </trkpt>
      <trkpt lat="43.74639" lon="7.2559">
        <ele>468.6</ele>
        <time>2012-11-24T12:23:38Z</time>
      </trkpt>
      <trkpt lat="43.74624" lon="7.25599">
        <ele>467.4</ele>
        <time>2012-11-24T12:23:44Z</time>
      </trkpt>
      <trkpt lat="43.74602" lon="7.256">
        <ele>466.7</ele>
        <time>2012-11-24T12:23:49Z</time>
      </trkpt>
      <trkpt lat="43.74574" lon="7.25605">
        <ele>465.4</ele>
        <time>2012-11-24T12:23:55Z</time>
      </trkpt>
      <trkpt lat="43.74564" lon="7.25619">
        <ele>463.8</ele>
        <time>2012-11-24T12:24:36Z</time>
      </trkpt>
      <trkpt lat="43.74555" lon="7.25638">
        <ele>462.9</ele>
        <time>2012-11-24T12:24:41Z</time>
      </trkpt>
      <trkpt lat="43.74546" lon="7.25662">
        <ele>461.2</ele>
        <time>2012-11-24T12:24:47Z</time>
      </trkpt>
      <trkpt lat="43.74538" lon="7.25682">
        <ele>459.5</ele>
        <time>2012-11-24T12:24:54Z</time>
      </trkpt>
      <trkpt lat="43.74534" lon="7.25698">
        <ele>458.4</ele>
        <time>2012-11-24T12:25:51Z</time>
      </trkpt>
      <trkpt lat="43.74522" lon="7.25722">
        <ele>463.3</ele>
        <time>2012-11-24T12:31:08Z</time>
      </trkpt>
      <trkpt lat="43.7451" lon="7.25716">
        <ele>463.4</ele>
        <time>2012-11-24T12:31:13Z</time>
      </trkpt>
      <trkpt lat="43.745" lon="7.25704">
        <ele>461.9</ele>
        <time>2012-11-24T12:31:18Z</time>
      </trkpt>
      <trkpt lat="43.74479" lon="7.25698">
        <ele>461.2</ele>
        <time>2012-11-24T12:31:24Z</time>
      </trkpt>
      <trkpt lat="43.74463" lon="7.25688">
        <ele>460.5</ele>
        <time>2012-11-24T12:31:29Z</time>
      </trkpt>
      <trkpt lat="43.74444" lon="7.25683">
        <ele>458.7</ele>
        <time>2012-11-24T12:31:35Z</time>
      </trkpt>
      <trkpt lat="43.74426" lon="7.25676">
        <ele>457.1</ele>
        <time>2012-11-24T12:31:40Z</time>
      </trkpt>
      <trkpt lat="43.74408" lon="7.25657">
        <ele>456.1</ele>
        <time>2012-11-24T12:31:45Z</time>
      </trkpt>
      <trkpt lat="43.74406" lon="7.25645">
        <ele>449.2</ele>
        <time>2012-11-24T12:32:04Z</time>
      </trkpt>
      <trkpt lat="43.74405" lon="7.25647">
        <ele>444.3</ele>
        <time>2012-11-24T12:33:30Z</time>
      </trkpt>
      <trkpt lat="43.74386" lon="7.25651">
        <ele>443.9</ele>
        <time>2012-11-24T12:33:36Z</time>
      </trkpt>
      <trkpt lat="43.74375" lon="7.25648">
        <ele>443.6</ele>
        <time>2012-11-24T12:33:41Z</time>
      </trkpt>
      <trkpt lat="43.74362" lon="7.25647">
        <ele>442.9</ele>
        <time>2012-11-24T12:33:47Z</time>
      </trkpt>
      <trkpt lat="43.74342" lon="7.25642">
        <ele>443.1</ele>
        <time>2012-11-24T12:33:53Z</time>
      </trkpt>
      <trkpt lat="43.74329" lon="7.2563">
        <ele>442.5</ele>
        <time>2012-11-24T12:33:58Z</time>
      </trkpt>
      <trkpt lat="43.74306" lon="7.25626">
        <ele>441.4</ele>
        <time>2012-11-24T12:34:04Z</time>
      </trkpt>
      <trkpt lat="43.74289" lon="7.25616">
        <ele>441</ele>
        <time>2012-11-24T12:34:09Z</time>
      </trkpt>
      <trkpt lat="43.74277" lon="7.25632">
        <ele>439.7</ele>
        <time>2012-11-24T12:34:14Z</time>
      </trkpt>
      <trkpt lat="43.7426" lon="7.2564">
        <ele>437.8</ele>
        <time>2012-11-24T12:34:19Z</time>
      </trkpt>
      <trkpt lat="43.74241" lon="7.25658">
        <ele>437.5</ele>
        <time>2012-11-24T12:34:25Z</time>
      </trkpt>
      <trkpt lat="43.74227" lon="7.25668">
        <ele>436.4</ele>
        <time>2012-11-24T12:34:30Z</time>
      </trkpt>
      <trkpt lat="43.74218" lon="7.25675">
        <ele>436.3</ele>
        <time>2012-11-24T12:34:35Z</time>
      </trkpt>
      <trkpt lat="43.74213" lon="7.25698">
        <ele>434.7</ele>
        <time>2012-11-24T12:34:41Z</time>
      </trkpt>
      <trkpt lat="43.74203" lon="7.25721">
        <ele>435.5</ele>
        <time>2012-11-24T12:34:46Z</time>
      </trkpt>
      <trkpt lat="43.742" lon="7.25738">
        <ele>436</ele>
        <time>2012-11-24T12:34:51Z</time>
      </trkpt>
      <trkpt lat="43.74191" lon="7.25745">
        <ele>434.9</ele>
        <time>2012-11-24T12:34:56Z</time>
      </trkpt>
      <trkpt lat="43.74194" lon="7.25762">
        <ele>433.4</ele>
        <time>2012-11-24T12:35:02Z</time>
      </trkpt>
      <trkpt lat="43.74199" lon="7.25778">
        <ele>430.4</ele>
        <time>2012-11-24T12:35:08Z</time>
      </trkpt>
      <trkpt lat="43.74205" lon="7.25791">
        <ele>428.9</ele>
        <time>2012-11-24T12:35:14Z</time>
      </trkpt>
      <trkpt lat="43.74212" lon="7.25801">
        <ele>426.9</ele>
        <time>2012-11-24T12:35:20Z</time>
      </trkpt>
      <trkpt lat="43.74218" lon="7.25813">
        <ele>424.8</ele>
        <time>2012-11-24T12:35:26Z</time>
      </trkpt>
      <trkpt lat="43.7423" lon="7.25831">
        <ele>423.1</ele>
        <time>2012-11-24T12:35:32Z</time>
      </trkpt>
      <trkpt lat="43.74244" lon="7.25849">
        <ele>421.7</ele>
        <time>2012-11-24T12:35:38Z</time>
      </trkpt>
      <trkpt lat="43.74263" lon="7.25862">
        <ele>420.3</ele>
        <time>2012-11-24T12:35:44Z</time>
      </trkpt>
      <trkpt lat="43.7428" lon="7.25871">
        <ele>419.4</ele>
        <time>2012-11-24T12:35:49Z</time>
      </trkpt>
      <trkpt lat="43.74292" lon="7.25899">
        <ele>418.2</ele>
        <time>2012-11-24T12:35:55Z</time>
      </trkpt>
      <trkpt lat="43.74287" lon="7.2593">
        <ele>417.8</ele>
        <time>2012-11-24T12:36:00Z</time>
      </trkpt>
      <trkpt lat="43.74296" lon="7.25973">
        <ele>416.5</ele>
        <time>2012-11-24T12:36:06Z</time>
      </trkpt>
      <trkpt lat="43.74309" lon="7.26016">
        <ele>414.4</ele>
        <time>2012-11-24T12:36:12Z</time>
      </trkpt>
      <trkpt lat="43.74319" lon="7.26056">
        <ele>411.8</ele>
        <time>2012-11-24T12:36:18Z</time>
      </trkpt>
      <trkpt lat="43.74327" lon="7.26081">
        <ele>409.7</ele>
        <time>2012-11-24T12:36:23Z</time>
      </trkpt>
      <trkpt lat="43.74337" lon="7.26112">
        <ele>408.4</ele>
        <time>2012-11-24T12:36:29Z</time>
      </trkpt>
      <trkpt lat="43.74347" lon="7.26153">
        <ele>405.9</ele>
        <time>2012-11-24T12:36:35Z</time>
      </trkpt>
      <trkpt lat="43.74366" lon="7.26202">
        <ele>403.8</ele>
        <time>2012-11-24T12:36:40Z</time>
      </trkpt>
      <trkpt lat="43.74385" lon="7.26255">
        <ele>400.4</ele>
        <time>2012-11-24T12:36:46Z</time>
      </trkpt>
      <trkpt lat="43.74376" lon="7.26295">
        <ele>396.3</ele>
        <time>2012-11-24T12:36:51Z</time>
      </trkpt>
      <trkpt lat="43.74364" lon="7.2632">
        <ele>393.8</ele>
        <time>2012-11-24T12:36:56Z</time>
      </trkpt>
      <trkpt lat="43.74357" lon="7.26336">
        <ele>390.7</ele>
        <time>2012-11-24T12:37:03Z</time>
      </trkpt>
      <trkpt lat="43.74347" lon="7.2635">
        <ele>388.1</ele>
        <time>2012-11-24T12:37:10Z</time>
      </trkpt>
      <trkpt lat="43.74347" lon="7.26346">
        <ele>382.1</ele>
        <time>2012-11-24T12:37:32Z</time>
      </trkpt>
      <trkpt lat="43.74347" lon="7.2635">
        <ele>378.6</ele>
        <time>2012-11-24T12:38:08Z</time>
      </trkpt>
      <trkpt lat="43.74345" lon="7.26343">
        <ele>378.8</ele>
        <time>2012-11-24T12:38:15Z</time>
      </trkpt>
      <trkpt lat="43.7435" lon="7.26343">
        <ele>377.7</ele>
        <time>2012-11-24T12:38:24Z</time>
      </trkpt>
      <trkpt lat="43.74341" lon="7.26349">
        <ele>376.2</ele>
        <time>2012-11-24T12:39:01Z</time>
      </trkpt>
      <trkpt lat="43.74338" lon="7.26348">
        <ele>374.4</ele>
        <time>2012-11-24T12:40:04Z</time>
      </trkpt>
      <trkpt lat="43.74344" lon="7.26353">
        <ele>373.9</ele>
        <time>2012-11-24T12:40:09Z</time>
      </trkpt>
      <trkpt lat="43.7435" lon="7.26357">
        <ele>374.8</ele>
        <time>2012-11-24T12:40:15Z</time>
      </trkpt>
      <trkpt lat="43.74359" lon="7.26366">
        <ele>375.5</ele>
        <time>2012-11-24T12:40:21Z</time>
      </trkpt>
      <trkpt lat="43.74363" lon="7.26383">
        <ele>376.8</ele>
        <time>2012-11-24T12:40:28Z</time>
      </trkpt>
      <trkpt lat="43.74362" lon="7.26379">
        <ele>378.5</ele>
        <time>2012-11-24T12:40:41Z</time>
      </trkpt>
      <trkpt lat="43.74359" lon="7.26369">
        <ele>376.6</ele>
        <time>2012-11-24T12:40:46Z</time>
      </trkpt>
      <trkpt lat="43.74362" lon="7.26363">
        <ele>376.7</ele>
        <time>2012-11-24T12:40:51Z</time>
      </trkpt>
      <trkpt lat="43.74375" lon="7.26355">
        <ele>377.5</ele>
        <time>2012-11-24T12:40:57Z</time>
      </trkpt>
    </trkseg>
  </trk>
</gpx>